Observation data for Estelline on 07/03/2020      Previous  Date  Next       Current Mesonet Observations  Soil Data  Daily Summary Page  Observations in Plain Language
KES1 030500Z 31002KT 28/18 A3001 RMK A01 T02810184  RH  056%=      5-min Rain = 0
KES1 030501Z 29002KT 28/18 A3001 RMK A01 T02810184  RH  056%=      5-min Rain = 0
KES1 030502Z 29002KT 28/19 A3001 RMK A01 T02810185  RH  056%=      5-min Rain = 0
KES1 030503Z 30005KT 28/18 A3001 RMK A01 T02800184  RH  056%=      5-min Rain = 0
KES1 030504Z 27005KT 28/18 A3001 RMK A01 T02800184  RH  056%=      5-min Rain = 0
KES1 030505Z 28003KT 28/18 A3001 RMK A01 T02810184  RH  056%=      5-min Rain = 0
KES1 030506Z 25003KT 28/18 A3001 RMK A01 T02810184  RH  056%=      5-min Rain = 0
KES1 030507Z 23002KT 28/18 A3001 RMK A01 T02800184  RH  056%=      5-min Rain = 0
KES1 030508Z 25003KT 28/18 A3001 RMK A01 T02800184  RH  056%=      5-min Rain = 0
KES1 030509Z 24002KT 28/18 A3001 RMK A01 T02800184  RH  056%=      5-min Rain = 0
KES1 030510Z 25002KT 28/18 A3001 RMK A01 T02800184  RH  056%=      5-min Rain = 0
KES1 030511Z 29003KT 28/18 A3001 RMK A01 T02800184  RH  056%=      5-min Rain = 0
KES1 030512Z 29002KT 28/18 A3001 RMK A01 T02800183  RH  056%=      5-min Rain = 0
KES1 030513Z 30003KT 28/18 A30 RMK A01 T02800184  RH  056%=      5-min Rain = 0
KES1 030514Z 30003KT 28/18 A30 RMK A01 T02800183  RH  056%=      5-min Rain = 0
KES1 030515Z 30004KT 28/18 A30 RMK A01 T02810183  RH  056%=      5-min Rain = 0
KES1 030516Z 30003KT 28/18 A30 RMK A01 T02810183  RH  055%=      5-min Rain = 0
KES1 030517Z 30003KT 28/18 A30 RMK A01 T02810184  RH  055%=      5-min Rain = 0
KES1 030518Z 30003KT 28/18 A30 RMK A01 T02810184  RH  055%=      5-min Rain = 0
KES1 030519Z 30003KT 28/18 A30 RMK A01 T02810184  RH  056%=      5-min Rain = 0
KES1 030520Z 29004KT 28/18 A30 RMK A01 T02810184  RH  055%=      5-min Rain = 0
KES1 030521Z 29004KT 28/18 A30 RMK A01 T02810183  RH  055%=      5-min Rain = 0
KES1 030522Z 29004KT 28/18 A30 RMK A01 T02810184  RH  055%=      5-min Rain = 0
KES1 030523Z 28004KT 28/18 A30 RMK A01 T02810184  RH  055%=      5-min Rain = 0
KES1 030524Z 29004KT 28/18 A30 RMK A01 T02810184  RH  056%=      5-min Rain = 0
KES1 030525Z 29004KT 28/18 A30 RMK A01 T02810184  RH  056%=      5-min Rain = 0
KES1 030526Z 29004KT 28/18 A3001 RMK A01 T02810184  RH  056%=      5-min Rain = 0
KES1 030527Z 30003KT 28/18 A3001 RMK A01 T02810184  RH  055%=      5-min Rain = 0
KES1 030528Z 29003KT 28/18 A3001 RMK A01 T02810184  RH  056%=      5-min Rain = 0
KES1 030529Z 28002KT 28/18 A3001 RMK A01 T02810184  RH  056%=      5-min Rain = 0
KES1 030530Z 26002KT 28/18 A3001 RMK A01 T02810184  RH  056%=      5-min Rain = 0
KES1 030531Z 26002KT 28/18 A3001 RMK A01 T02810184  RH  056%=      5-min Rain = 0
KES1 030532Z 25002KT 28/18 A3001 RMK A01 T02810184  RH  056%=      5-min Rain = 0
KES1 030533Z 26003KT 28/18 A3001 RMK A01 T02810184  RH  056%=      5-min Rain = 0
KES1 030534Z 26004KT 28/18 A30 RMK A01 T02800184  RH  056%=      5-min Rain = 0
KES1 030535Z 26003KT 28/18 A30 RMK A01 T02800184  RH  056%=      5-min Rain = 0
KES1 030536Z 26003KT 28/19 A30 RMK A01 T02800185  RH  056%=      5-min Rain = 0
KES1 030537Z 28003KT 28/19 A30 RMK A01 T02800185  RH  056%=      5-min Rain = 0
KES1 030538Z 27003KT 28/19 A30 RMK A01 T02800185  RH  057%=      5-min Rain = 0
KES1 030539Z 28003KT 28/19 A30 RMK A01 T02800185  RH  056%=      5-min Rain = 0
KES1 030540Z 27003KT 28/19 A30 RMK A01 T02800186  RH  057%=      5-min Rain = 0
KES1 030541Z 26003KT 28/19 A2999 RMK A01 T02790187  RH  057%=      5-min Rain = 0
KES1 030542Z 24003KT 28/19 A2999 RMK A01 T02790187  RH  058%=      5-min Rain = 0
KES1 030543Z 21004KT 28/19 A2999 RMK A01 T02780188  RH  058%=      5-min Rain = 0
KES1 030544Z 21005KT 28/19 A2999 RMK A01 T02770188  RH  058%=      5-min Rain = 0
KES1 030545Z 21004KT 28/19 A2999 RMK A01 T02770187  RH  058%=      5-min Rain = 0
KES1 030546Z 22004KT 28/19 A2999 RMK A01 T02760188  RH  058%=      5-min Rain = 0
KES1 030547Z 21004KT 28/19 A2999 RMK A01 T02760188  RH  059%=      5-min Rain = 0
KES1 030548Z 21004KT 28/19 A2999 RMK A01 T02760188  RH  059%=      5-min Rain = 0
KES1 030549Z 22004KT 28/19 A2999 RMK A01 T02750188  RH  059%=      5-min Rain = 0
KES1 030550Z 22004KT 28/19 A2998 RMK A01 T02750188  RH  059%=      5-min Rain = 0
KES1 030551Z 22005KT 28/19 A2998 RMK A01 T02750188  RH  059%=      5-min Rain = 0
KES1 030552Z 22005KT 28/19 A2998 RMK A01 T02750188  RH  059%=      5-min Rain = 0
KES1 030553Z 21005KT 28/19 A2998 RMK A01 T02750188  RH  059%=      5-min Rain = 0
KES1 030554Z 21005KT 28/19 A2998 RMK A01 T02750188  RH  059%=      5-min Rain = 0
KES1 030555Z 20005KT 28/19 A2998 RMK A01 T02750187  RH  059%=      5-min Rain = 0
KES1 030556Z 19005KT 28/19 A2998 RMK A01 T02750187  RH  059%=      5-min Rain = 0
KES1 030557Z 19005KT 28/19 A2998 RMK A01 T02750187  RH  059%=      5-min Rain = 0
KES1 030558Z 20006KT 28/19 A2998 RMK A01 T02750187  RH  059%=      5-min Rain = 0
KES1 030559Z 19006KT 28/19 A2998 RMK A01 T02760187  RH  059%=      5-min Rain = 0
KES1 030600Z 20006KT 28/19 A2998 RMK A01 T02760187  RH  059%=      5-min Rain = 0
KES1 030601Z 19006KT 28/19 A2998 RMK A01 T02760187  RH  059%=      5-min Rain = 0
KES1 030602Z 20006KT 28/19 A2998 RMK A01 T02760187  RH  058%=      5-min Rain = 0
KES1 030603Z 20006KT 28/19 A2998 RMK A01 T02760187  RH  058%=      5-min Rain = 0
KES1 030604Z 20006KT 28/19 A2998 RMK A01 T02760187  RH  058%=      5-min Rain = 0
KES1 030605Z 20006KT 28/19 A2998 RMK A01 T02770188  RH  058%=      5-min Rain = 0
KES1 030606Z 20006KT 28/19 A2998 RMK A01 T02760188  RH  058%=      5-min Rain = 0
KES1 030607Z 20006KT 28/19 A2997 RMK A01 T02760187  RH  058%=      5-min Rain = 0
KES1 030608Z 20006KT 28/19 A2997 RMK A01 T02770187  RH  058%=      5-min Rain = 0
KES1 030609Z 20006KT 28/19 A2997 RMK A01 T02770187  RH  058%=      5-min Rain = 0
KES1 030610Z 19006KT 28/19 A2997 RMK A01 T02770187  RH  058%=      5-min Rain = 0
KES1 030611Z 19006KT 28/19 A2997 RMK A01 T02780187  RH  058%=      5-min Rain = 0
KES1 030612Z 18006KT 28/19 A2997 RMK A01 T02780187  RH  058%=      5-min Rain = 0
KES1 030613Z 17005KT 28/19 A2997 RMK A01 T02790188  RH  058%=      5-min Rain = 0
KES1 030614Z 18006KT 28/19 A2997 RMK A01 T02790188  RH  058%=      5-min Rain = 0
KES1 030615Z 18006KT 28/19 A2997 RMK A01 T02790188  RH  058%=      5-min Rain = 0
KES1 030616Z 18006KT 28/19 A2997 RMK A01 T02790189  RH  058%=      5-min Rain = 0
KES1 030617Z 18005KT 28/19 A2997 RMK A01 T02790189  RH  058%=      5-min Rain = 0
KES1 030618Z 17005KT 28/19 A2996 RMK A01 T02800189  RH  058%=      5-min Rain = 0
KES1 030619Z 17004KT 28/19 A2996 RMK A01 T02800190  RH  058%=      5-min Rain = 0
KES1 030620Z 16005KT 28/19 A2996 RMK A01 T02790189  RH  058%=      5-min Rain = 0
KES1 030621Z 16005KT 28/19 A2996 RMK A01 T02790189  RH  058%=      5-min Rain = 0
KES1 030622Z 15004KT 28/19 A2996 RMK A01 T02790189  RH  058%=      5-min Rain = 0
KES1 030623Z 16005KT 28/19 A2996 RMK A01 T02780189  RH  058%=      5-min Rain = 0
KES1 030624Z 15006KT 28/19 A2996 RMK A01 T02780189  RH  058%=      5-min Rain = 0
KES1 030625Z 14007KT 28/19 A2996 RMK A01 T02780189  RH  058%=      5-min Rain = 0
KES1 030626Z 14007KT 28/19 A2996 RMK A01 T02780189  RH  058%=      5-min Rain = 0
KES1 030627Z 15007KT 28/19 A2996 RMK A01 T02770189  RH  059%=      5-min Rain = 0
KES1 030628Z 15006KT 28/19 A2996 RMK A01 T02760189  RH  059%=      5-min Rain = 0
KES1 030629Z 16006KT 27/19 A2996 RMK A01 T02740189  RH  060%=      5-min Rain = 0
KES1 030630Z 16006KT 27/19 A2996 RMK A01 T02740189  RH  060%=      5-min Rain = 0
KES1 030631Z 17007KT 27/19 A2996 RMK A01 T02730189  RH  060%=      5-min Rain = 0
KES1 030632Z 17007KT 27/19 A2996 RMK A01 T02740189  RH  060%=      5-min Rain = 0
KES1 030633Z 15004KT 27/19 A2996 RMK A01 T02740189  RH  060%=      5-min Rain = 0
KES1 030634Z 15005KT 27/19 A2996 RMK A01 T02740189  RH  060%=      5-min Rain = 0
KES1 030635Z 15005KT 27/19 A2995 RMK A01 T02740189  RH  060%=      5-min Rain = 0
KES1 030636Z 15006KT 27/19 A2995 RMK A01 T02730189  RH  060%=      5-min Rain = 0
KES1 030637Z 15006KT 27/19 A2995 RMK A01 T02730190  RH  060%=      5-min Rain = 0
KES1 030638Z 16005KT 27/19 A2995 RMK A01 T02730190  RH  060%=      5-min Rain = 0
KES1 030639Z 14006KT 27/19 A2995 RMK A01 T02730189  RH  060%=      5-min Rain = 0
KES1 030640Z 15005KT 27/19 A2995 RMK A01 T02730189  RH  060%=      5-min Rain = 0
KES1 030641Z 14005KT 27/19 A2995 RMK A01 T02720190  RH  061%=      5-min Rain = 0
KES1 030642Z 14005KT 27/19 A2995 RMK A01 T02720190  RH  061%=      5-min Rain = 0
KES1 030643Z 14004KT 27/19 A2995 RMK A01 T02720190  RH  061%=      5-min Rain = 0
KES1 030644Z 14004KT 27/19 A2995 RMK A01 T02720190  RH  061%=      5-min Rain = 0
KES1 030645Z 13004KT 27/19 A2995 RMK A01 T02720191  RH  061%=      5-min Rain = 0
KES1 030646Z 13005KT 27/19 A2995 RMK A01 T02720191  RH  061%=      5-min Rain = 0
KES1 030647Z 12006KT 27/19 A2995 RMK A01 T02710191  RH  061%=      5-min Rain = 0
KES1 030648Z 11006KT 27/19 A2995 RMK A01 T02720191  RH  061%=      5-min Rain = 0
KES1 030649Z 11006KT 27/19 A2995 RMK A01 T02720191  RH  061%=      5-min Rain = 0
KES1 030650Z 11007KT 27/19 A2995 RMK A01 T02720191  RH  061%=      5-min Rain = 0
KES1 030651Z 11006KT 27/19 A2995 RMK A01 T02730191  RH  061%=      5-min Rain = 0
KES1 030652Z 11007KT 27/19 A2995 RMK A01 T02730192  RH  061%=      5-min Rain = 0
KES1 030653Z 11007KT 27/19 A2994 RMK A01 T02740192  RH  061%=      5-min Rain = 0
KES1 030654Z 12007KT 27/19 A2994 RMK A01 T02740193  RH  061%=      5-min Rain = 0
KES1 030655Z 12007KT 28/19 A2994 RMK A01 T02750193  RH  061%=      5-min Rain = 0
KES1 030656Z 13007KT 28/19 A2994 RMK A01 T02760194  RH  061%=      5-min Rain = 0
KES1 030657Z 14008KT 28/20 A2994 RMK A01 T02770195  RH  061%=      5-min Rain = 0
KES1 030658Z 14008KT 28/20 A2994 RMK A01 T02780195  RH  061%=      5-min Rain = 0
KES1 030659Z 14008KT 28/20 A2994 RMK A01 T02790196  RH  061%=      5-min Rain = 0
KES1 030700Z 14008KT 28/20 A2994 RMK A01 T02810198  RH  061%=      5-min Rain = 0
KES1 030701Z 15009KT 28/20 A2994 RMK A01 T02810198  RH  061%=      5-min Rain = 0
KES1 030702Z 14008KT 28/20 A2994 RMK A01 T02830199  RH  061%=      5-min Rain = 0
KES1 030703Z 14009KT 28/20 A2994 RMK A01 T02840200  RH  060%=      5-min Rain = 0
KES1 030704Z 13009KT 29/20 A2994 RMK A01 T02850201  RH  060%=      5-min Rain = 0
KES1 030705Z 14009KT 29/20 A2994 RMK A01 T02860201  RH  060%=      5-min Rain = 0
KES1 030706Z 14010KT 29/20 A2994 RMK A01 T02870201  RH  060%=      5-min Rain = 0
KES1 030707Z 13009KT 29/20 A2994 RMK A01 T02870201  RH  060%=      5-min Rain = 0
KES1 030708Z 13008KT 29/20 A2994 RMK A01 T02870201  RH  060%=      5-min Rain = 0
KES1 030709Z 12008KT 29/20 A2994 RMK A01 T02880202  RH  060%=      5-min Rain = 0
KES1 030710Z 12009KT 29/20 A2994 RMK A01 T02870201  RH  060%=      5-min Rain = 0
KES1 030711Z 12008KT 29/20 A2995 RMK A01 T02860201  RH  060%=      5-min Rain = 0
KES1 030712Z 12008KT 29/20 A2995 RMK A01 T02850201  RH  060%=      5-min Rain = 0
KES1 030713Z 12006KT 29/20 A2995 RMK A01 T02850201  RH  061%=      5-min Rain = 0
KES1 030714Z 12007KT 28/20 A2995 RMK A01 T02840202  RH  061%=      5-min Rain = 0
KES1 030715Z 13008KT 28/20 A2995 RMK A01 T02840201  RH  061%=      5-min Rain = 0
KES1 030716Z 13008KT 28/20 A2995 RMK A01 T02840202  RH  061%=      5-min Rain = 0
KES1 030717Z 13007KT 28/20 A2995 RMK A01 T02840202  RH  061%=      5-min Rain = 0
KES1 030718Z 13007KT 28/20 A2995 RMK A01 T02840202  RH  061%=      5-min Rain = 0
KES1 030719Z 14006KT 28/20 A2995 RMK A01 T02840202  RH  061%=      5-min Rain = 0
KES1 030720Z 14007KT 28/20 A2995 RMK A01 T02840202  RH  061%=      5-min Rain = 0
KES1 030721Z 14005KT 28/20 A2995 RMK A01 T02840202  RH  061%=      5-min Rain = 0
KES1 030722Z 15006KT 28/20 A2995 RMK A01 T02840202  RH  061%=      5-min Rain = 0
KES1 030723Z 15005KT 28/20 A2995 RMK A01 T02840202  RH  061%=      5-min Rain = 0
KES1 030724Z 16005KT 28/20 A2995 RMK A01 T02840202  RH  061%=      5-min Rain = 0
KES1 030725Z 16005KT 28/20 A2995 RMK A01 T02840202  RH  061%=      5-min Rain = 0
KES1 030726Z 15004KT 28/20 A2995 RMK A01 T02840202  RH  061%=      5-min Rain = 0
KES1 030727Z 15004KT 28/20 A2995 RMK A01 T02840203  RH  062%=      5-min Rain = 0
KES1 030728Z 14004KT 28/20 A2995 RMK A01 T02840203  RH  062%=      5-min Rain = 0
KES1 030729Z 14004KT 28/20 A2995 RMK A01 T02830203  RH  062%=      5-min Rain = 0
KES1 030730Z 14005KT 28/20 A2995 RMK A01 T02830203  RH  062%=      5-min Rain = 0
KES1 030731Z 14005KT 28/20 A2995 RMK A01 T02830203  RH  062%=      5-min Rain = 0
KES1 030732Z 13005KT 28/20 A2995 RMK A01 T02830203  RH  062%=      5-min Rain = 0
KES1 030733Z 14005KT 28/20 A2995 RMK A01 T02830203  RH  062%=      5-min Rain = 0
KES1 030734Z 14004KT 28/20 A2995 RMK A01 T02820202  RH  062%=      5-min Rain = 0
KES1 030735Z 14004KT 28/20 A2995 RMK A01 T02820202  RH  062%=      5-min Rain = 0
KES1 030736Z 14004KT 28/20 A2995 RMK A01 T02820202  RH  062%=      5-min Rain = 0
KES1 030737Z 14004KT 28/20 A2995 RMK A01 T02820202  RH  062%=      5-min Rain = 0
KES1 030738Z 14004KT 28/20 A2995 RMK A01 T02820202  RH  062%=      5-min Rain = 0
KES1 030739Z 15003KT 28/20 A2995 RMK A01 T02820202  RH  062%=      5-min Rain = 0
KES1 030740Z 14003KT 28/20 A2995 RMK A01 T02810202  RH  062%=      5-min Rain = 0
KES1 030741Z 14003KT 28/20 A2995 RMK A01 T02820202  RH  062%=      5-min Rain = 0
KES1 030742Z 15004KT 28/20 A2995 RMK A01 T02810202  RH  062%=      5-min Rain = 0
KES1 030743Z 15005KT 28/20 A2995 RMK A01 T02810202  RH  062%=      5-min Rain = 0
KES1 030744Z 15005KT 28/20 A2995 RMK A01 T02810202  RH  062%=      5-min Rain = 0
KES1 030745Z 15005KT 28/20 A2995 RMK A01 T02800202  RH  062%=      5-min Rain = 0
KES1 030746Z 15006KT 28/20 A2995 RMK A01 T02800202  RH  062%=      5-min Rain = 0
KES1 030747Z 15006KT 28/20 A2995 RMK A01 T02790202  RH  063%=      5-min Rain = 0
KES1 030748Z 15006KT 28/20 A2995 RMK A01 T02790202  RH  063%=      5-min Rain = 0
KES1 030749Z 15006KT 28/20 A2995 RMK A01 T02790202  RH  063%=      5-min Rain = 0
KES1 030750Z 15005KT 28/20 A2995 RMK A01 T02790202  RH  063%=      5-min Rain = 0
KES1 030751Z 16005KT 28/20 A2995 RMK A01 T02780202  RH  063%=      5-min Rain = 0
KES1 030752Z 15005KT 28/20 A2995 RMK A01 T02780202  RH  063%=      5-min Rain = 0
KES1 030753Z 15005KT 28/20 A2995 RMK A01 T02780202  RH  063%=      5-min Rain = 0
KES1 030754Z 15006KT 28/20 A2995 RMK A01 T02780202  RH  063%=      5-min Rain = 0
KES1 030755Z 16004KT 28/20 A2995 RMK A01 T02780201  RH  063%=      5-min Rain = 0
KES1 030756Z 15005KT 28/20 A2996 RMK A01 T02780202  RH  063%=      5-min Rain = 0
KES1 030757Z 15006KT 28/20 A2996 RMK A01 T02780201  RH  063%=      5-min Rain = 0
KES1 030758Z 15005KT 28/20 A2996 RMK A01 T02780202  RH  063%=      5-min Rain = 0
KES1 030759Z 15005KT 28/20 A2996 RMK A01 T02780202  RH  063%=      5-min Rain = 0
KES1 030800Z 14005KT 28/20 A2996 RMK A01 T02780202  RH  063%=      5-min Rain = 0
KES1 030801Z 14005KT 28/20 A2996 RMK A01 T02780202  RH  063%=      5-min Rain = 0
KES1 030802Z 14005KT 28/20 A2996 RMK A01 T02770202  RH  063%=      5-min Rain = 0
KES1 030803Z 14006KT 28/20 A2996 RMK A01 T02770202  RH  064%=      5-min Rain = 0
KES1 030804Z 14005KT 28/20 A2996 RMK A01 T02770202  RH  064%=      5-min Rain = 0
KES1 030805Z 14005KT 28/20 A2996 RMK A01 T02760201  RH  064%=      5-min Rain = 0
KES1 030806Z 14005KT 28/20 A2996 RMK A01 T02760202  RH  064%=      5-min Rain = 0
KES1 030807Z 14006KT 28/20 A2996 RMK A01 T02760202  RH  064%=      5-min Rain = 0
KES1 030808Z 14005KT 28/20 A2996 RMK A01 T02760202  RH  064%=      5-min Rain = 0
KES1 030809Z 14005KT 28/20 A2996 RMK A01 T02760202  RH  064%=      5-min Rain = 0
KES1 030810Z 14006KT 28/20 A2996 RMK A01 T02760202  RH  064%=      5-min Rain = 0
KES1 030811Z 13007KT 28/20 A2996 RMK A01 T02760202  RH  064%=      5-min Rain = 0
KES1 030812Z 13006KT 28/20 A2996 RMK A01 T02750202  RH  064%=      5-min Rain = 0
KES1 030813Z 13007KT 28/20 A2996 RMK A01 T02750202  RH  064%=      5-min Rain = 0
KES1 030814Z 13007KT 28/20 A2996 RMK A01 T02760203  RH  064%=      5-min Rain = 0
KES1 030815Z 14007KT 28/20 A2996 RMK A01 T02760203  RH  065%=      5-min Rain = 0
KES1 030816Z 13008KT 28/20 A2996 RMK A01 T02750203  RH  065%=      5-min Rain = 0
KES1 030817Z 14007KT 28/20 A2996 RMK A01 T02750203  RH  065%=      5-min Rain = 0
KES1 030818Z 14008KT 28/20 A2996 RMK A01 T02750203  RH  065%=      5-min Rain = 0
KES1 030819Z 14007KT 28/20 A2996 RMK A01 T02750204  RH  065%=      5-min Rain = 0
KES1 030820Z 14007KT 28/20 A2996 RMK A01 T02750204  RH  065%=      5-min Rain = 0
KES1 030821Z 15007KT 28/20 A2996 RMK A01 T02750204  RH  065%=      5-min Rain = 0
KES1 030822Z 15007KT 28/20 A2996 RMK A01 T02750204  RH  065%=      5-min Rain = 0
KES1 030823Z 15007KT 28/20 A2996 RMK A01 T02750204  RH  065%=      5-min Rain = 0
KES1 030824Z 15007KT 27/20 A2996 RMK A01 T02740204  RH  065%=      5-min Rain = 0
KES1 030825Z 15008KT 27/20 A2996 RMK A01 T02740204  RH  066%=      5-min Rain = 0
KES1 030826Z 14007KT 27/20 A2996 RMK A01 T02740204  RH  066%=      5-min Rain = 0
KES1 030827Z 15008KT 27/21 A2996 RMK A01 T02740205  RH  066%=      5-min Rain = 0
KES1 030828Z 14007KT 27/21 A2996 RMK A01 T02740205  RH  066%=      5-min Rain = 0
KES1 030829Z 15006KT 27/20 A2996 RMK A01 T02740204  RH  066%=      5-min Rain = 0
KES1 030830Z 15007KT 27/21 A2996 RMK A01 T02740205  RH  066%=      5-min Rain = 0
KES1 030831Z 15006KT 27/21 A2996 RMK A01 T02730205  RH  066%=      5-min Rain = 0
KES1 030832Z 15006KT 27/21 A2996 RMK A01 T02730205  RH  066%=      5-min Rain = 0
KES1 030833Z 15006KT 27/21 A2996 RMK A01 T02730205  RH  066%=      5-min Rain = 0
KES1 030834Z 15006KT 27/21 A2996 RMK A01 T02730205  RH  066%=      5-min Rain = 0
KES1 030835Z 15006KT 27/21 A2996 RMK A01 T02730205  RH  066%=      5-min Rain = 0
KES1 030836Z 15006KT 27/21 A2996 RMK A01 T02730205  RH  066%=      5-min Rain = 0
KES1 030837Z 14005KT 27/21 A2996 RMK A01 T02730205  RH  066%=      5-min Rain = 0
KES1 030838Z 14006KT 27/21 A2996 RMK A01 T02720205  RH  067%=      5-min Rain = 0
KES1 030839Z 14005KT 27/21 A2996 RMK A01 T02720205  RH  067%=      5-min Rain = 0
KES1 030840Z 14006KT 27/21 A2996 RMK A01 T02720205  RH  067%=      5-min Rain = 0
KES1 030841Z 14006KT 27/21 A2996 RMK A01 T02720205  RH  067%=      5-min Rain = 0
KES1 030842Z 14006KT 27/21 A2996 RMK A01 T02720205  RH  067%=      5-min Rain = 0
KES1 030843Z 15006KT 27/21 A2996 RMK A01 T02710205  RH  067%=      5-min Rain = 0
KES1 030844Z 15005KT 27/21 A2996 RMK A01 T02710205  RH  067%=      5-min Rain = 0
KES1 030845Z 14006KT 27/21 A2996 RMK A01 T02710205  RH  067%=      5-min Rain = 0
KES1 030846Z 14005KT 27/21 A2996 RMK A01 T02700205  RH  067%=      5-min Rain = 0
KES1 030847Z 14006KT 27/21 A2996 RMK A01 T02700205  RH  068%=      5-min Rain = 0
KES1 030848Z 14006KT 27/21 A2996 RMK A01 T02700205  RH  068%=      5-min Rain = 0
KES1 030849Z 15006KT 27/21 A2996 RMK A01 T02700205  RH  068%=      5-min Rain = 0
KES1 030850Z 15006KT 27/21 A2996 RMK A01 T02700206  RH  068%=      5-min Rain = 0
KES1 030851Z 15007KT 27/21 A2996 RMK A01 T02700206  RH  068%=      5-min Rain = 0
KES1 030852Z 14006KT 27/21 A2996 RMK A01 T02700206  RH  068%=      5-min Rain = 0
KES1 030853Z 14007KT 27/21 A2996 RMK A01 T02700206  RH  068%=      5-min Rain = 0
KES1 030854Z 14006KT 27/21 A2996 RMK A01 T02690206  RH  068%=      5-min Rain = 0
KES1 030855Z 15007KT 27/21 A2996 RMK A01 T02690206  RH  068%=      5-min Rain = 0
KES1 030856Z 14006KT 27/21 A2996 RMK A01 T02690206  RH  068%=      5-min Rain = 0
KES1 030857Z 14006KT 27/21 A2996 RMK A01 T02690206  RH  068%=      5-min Rain = 0
KES1 030858Z 14006KT 27/21 A2996 RMK A01 T02690206  RH  068%=      5-min Rain = 0
KES1 030859Z 14007KT 27/21 A2996 RMK A01 T02690206  RH  068%=      5-min Rain = 0
KES1 030900Z 14006KT 27/21 A2996 RMK A01 T02690206  RH  068%=      5-min Rain = 0
KES1 030901Z 14006KT 27/21 A2996 RMK A01 T02690206  RH  068%=      5-min Rain = 0
KES1 030902Z 14007KT 27/21 A2996 RMK A01 T02690206  RH  068%=      5-min Rain = 0
KES1 030903Z 14006KT 27/21 A2996 RMK A01 T02690206  RH  068%=      5-min Rain = 0
KES1 030904Z 14007KT 27/21 A2996 RMK A01 T02690206  RH  068%=      5-min Rain = 0
KES1 030905Z 14006KT 27/21 A2996 RMK A01 T02690206  RH  068%=      5-min Rain = 0
KES1 030906Z 14007KT 27/21 A2996 RMK A01 T02690206  RH  068%=      5-min Rain = 0
KES1 030907Z 14005KT 27/21 A2996 RMK A01 T02690206  RH  068%=      5-min Rain = 0
KES1 030908Z 14006KT 27/21 A2996 RMK A01 T02690206  RH  068%=      5-min Rain = 0
KES1 030909Z 14006KT 27/21 A2997 RMK A01 T02690206  RH  068%=      5-min Rain = 0
KES1 030910Z 14007KT 27/21 A2997 RMK A01 T02690206  RH  068%=      5-min Rain = 0
KES1 030911Z 14006KT 27/21 A2997 RMK A01 T02690206  RH  068%=      5-min Rain = 0
KES1 030912Z 14006KT 27/21 A2997 RMK A01 T02690206  RH  069%=      5-min Rain = 0
KES1 030913Z 14007KT 27/21 A2997 RMK A01 T02690206  RH  069%=      5-min Rain = 0
KES1 030914Z 14007KT 27/21 A2997 RMK A01 T02690206  RH  069%=      5-min Rain = 0
KES1 030915Z 14006KT 27/21 A2997 RMK A01 T02690206  RH  068%=      5-min Rain = 0
KES1 030916Z 15007KT 27/21 A2997 RMK A01 T02690206  RH  068%=      5-min Rain = 0
KES1 030917Z 14006KT 27/21 A2997 RMK A01 T02680206  RH  069%=      5-min Rain = 0
KES1 030918Z 14005KT 27/21 A2997 RMK A01 T02680206  RH  069%=      5-min Rain = 0
KES1 030919Z 14007KT 27/21 A2997 RMK A01 T02670205  RH  069%=      5-min Rain = 0
KES1 030920Z 14006KT 27/21 A2997 RMK A01 T02670205  RH  069%=      5-min Rain = 0
KES1 030921Z 14007KT 27/21 A2997 RMK A01 T02670206  RH  069%=      5-min Rain = 0
KES1 030922Z 14006KT 27/21 A2997 RMK A01 T02680206  RH  069%=      5-min Rain = 0
KES1 030923Z 13006KT 27/21 A2997 RMK A01 T02670206  RH  069%=      5-min Rain = 0
KES1 030924Z 13006KT 27/21 A2997 RMK A01 T02670206  RH  069%=      5-min Rain = 0
KES1 030925Z 13007KT 27/21 A2997 RMK A01 T02660205  RH  069%=      5-min Rain = 0
KES1 030926Z 13007KT 27/21 A2997 RMK A01 T02660206  RH  069%=      5-min Rain = 0
KES1 030927Z 13006KT 27/21 A2997 RMK A01 T02660206  RH  070%=      5-min Rain = 0
KES1 030928Z 13007KT 27/21 A2997 RMK A01 T02650206  RH  070%=      5-min Rain = 0
KES1 030929Z 13006KT 27/21 A2997 RMK A01 T02650206  RH  070%=      5-min Rain = 0
KES1 030930Z 13007KT 27/21 A2997 RMK A01 T02650206  RH  070%=      5-min Rain = 0
KES1 030931Z 13007KT 27/21 A2997 RMK A01 T02650206  RH  070%=      5-min Rain = 0
KES1 030932Z 13007KT 27/21 A2997 RMK A01 T02650206  RH  070%=      5-min Rain = 0
KES1 030933Z 13007KT 27/21 A2997 RMK A01 T02650206  RH  070%=      5-min Rain = 0
KES1 030934Z 13006KT 27/21 A2997 RMK A01 T02650206  RH  070%=      5-min Rain = 0
KES1 030935Z 13007KT 26/21 A2997 RMK A01 T02640206  RH  070%=      5-min Rain = 0
KES1 030936Z 13007KT 26/21 A2997 RMK A01 T02630205  RH  070%=      5-min Rain = 0
KES1 030937Z 13007KT 26/21 A2997 RMK A01 T02640206  RH  070%=      5-min Rain = 0
KES1 030938Z 13006KT 26/21 A2997 RMK A01 T02640205  RH  070%=      5-min Rain = 0
KES1 030939Z 13006KT 26/21 A2997 RMK A01 T02640205  RH  070%=      5-min Rain = 0
KES1 030940Z 14006KT 26/21 A2997 RMK A01 T02640205  RH  070%=      5-min Rain = 0
KES1 030941Z 13007KT 26/21 A2998 RMK A01 T02640205  RH  070%=      5-min Rain = 0
KES1 030942Z 13006KT 26/21 A2998 RMK A01 T02630205  RH  070%=      5-min Rain = 0
KES1 030943Z 13006KT 26/21 A2998 RMK A01 T02630205  RH  070%=      5-min Rain = 0
KES1 030944Z 14006KT 26/21 A2998 RMK A01 T02630205  RH  070%=      5-min Rain = 0
KES1 030945Z 13006KT 26/21 A2998 RMK A01 T02630205  RH  070%=      5-min Rain = 0
KES1 030946Z 14006KT 26/20 A2998 RMK A01 T02630204  RH  070%=      5-min Rain = 0
KES1 030947Z 13007KT 26/21 A2998 RMK A01 T02630205  RH  070%=      5-min Rain = 0
KES1 030948Z 13007KT 26/20 A2998 RMK A01 T02620204  RH  070%=      5-min Rain = 0
KES1 030949Z 13007KT 26/20 A2998 RMK A01 T02620204  RH  070%=      5-min Rain = 0
KES1 030950Z 13006KT 26/20 A2998 RMK A01 T02620204  RH  070%=      5-min Rain = 0
KES1 030951Z 13006KT 26/20 A2998 RMK A01 T02620204  RH  070%=      5-min Rain = 0
KES1 030952Z 13007KT 26/20 A2998 RMK A01 T02620204  RH  070%=      5-min Rain = 0
KES1 030953Z 13006KT 26/20 A2998 RMK A01 T02620204  RH  070%=      5-min Rain = 0
KES1 030954Z 13007KT 26/20 A2998 RMK A01 T02620204  RH  071%=      5-min Rain = 0
KES1 030955Z 13006KT 26/20 A2998 RMK A01 T02610204  RH  071%=      5-min Rain = 0
KES1 030956Z 13005KT 26/20 A2998 RMK A01 T02610204  RH  071%=      5-min Rain = 0
KES1 030957Z 12006KT 26/20 A2998 RMK A01 T02610204  RH  071%=      5-min Rain = 0
KES1 030958Z 13005KT 26/20 A2998 RMK A01 T02600204  RH  071%=      5-min Rain = 0
KES1 030959Z 12005KT 26/20 A2998 RMK A01 T02600204  RH  071%=      5-min Rain = 0
KES1 031000Z 12005KT 26/20 A2998 RMK A01 T02600204  RH  071%=      5-min Rain = 0
KES1 031001Z 12004KT 26/20 A2998 RMK A01 T02590204  RH  072%=      5-min Rain = 0
KES1 031002Z 12004KT 26/20 A2998 RMK A01 T02590204  RH  072%=      5-min Rain = 0
KES1 031003Z 12004KT 26/20 A2998 RMK A01 T02580204  RH  072%=      5-min Rain = 0
KES1 031004Z 12005KT 26/20 A2998 RMK A01 T02580204  RH  072%=      5-min Rain = 0
KES1 031005Z 12005KT 26/20 A2998 RMK A01 T02570204  RH  072%=      5-min Rain = 0
KES1 031006Z 12004KT 26/20 A2998 RMK A01 T02570204  RH  072%=      5-min Rain = 0
KES1 031007Z 12005KT 26/20 A2998 RMK A01 T02570204  RH  072%=      5-min Rain = 0
KES1 031008Z 11005KT 26/20 A2998 RMK A01 T02560204  RH  073%=      5-min Rain = 0
KES1 031009Z 11006KT 26/20 A2998 RMK A01 T02560204  RH  073%=      5-min Rain = 0
KES1 031010Z 11006KT 26/20 A2998 RMK A01 T02560204  RH  073%=      5-min Rain = 0
KES1 031011Z 11005KT 26/20 A2998 RMK A01 T02560204  RH  073%=      5-min Rain = 0
KES1 031012Z 10005KT 26/20 A2998 RMK A01 T02560204  RH  073%=      5-min Rain = 0
KES1 031013Z 09005KT 26/20 A2998 RMK A01 T02560204  RH  073%=      5-min Rain = 0
KES1 031014Z 10006KT 26/20 A2999 RMK A01 T02560204  RH  073%=      5-min Rain = 0
KES1 031015Z 09005KT 26/20 A2999 RMK A01 T02560204  RH  073%=      5-min Rain = 0
KES1 031016Z 09006KT 26/20 A2999 RMK A01 T02560204  RH  073%=      5-min Rain = 0
KES1 031017Z 08005KT 26/20 A2999 RMK A01 T02550204  RH  073%=      5-min Rain = 0
KES1 031018Z 07005KT 26/20 A2999 RMK A01 T02550204  RH  073%=      5-min Rain = 0
KES1 031019Z 06005KT 25/20 A2999 RMK A01 T02540203  RH  074%=      5-min Rain = 0
KES1 031020Z 05005KT 25/20 A2999 RMK A01 T02530203  RH  074%=      5-min Rain = 0
KES1 031021Z 05005KT 25/20 A2999 RMK A01 T02520203  RH  074%=      5-min Rain = 0
KES1 031022Z 05006KT 25/20 A2999 RMK A01 T02510202  RH  074%=      5-min Rain = 0
KES1 031023Z 05006KT 25/20 A2999 RMK A01 T02490202  RH  075%=      5-min Rain = 0
KES1 031024Z 05006KT 25/20 A2999 RMK A01 T02480202  RH  076%=      5-min Rain = 0
KES1 031025Z 05007KT 25/20 A2999 RMK A01 T02470202  RH  076%=      5-min Rain = 0
KES1 031026Z 05006KT 25/20 A2999 RMK A01 T02460202  RH  076%=      5-min Rain = 0
KES1 031027Z 05007KT 25/20 A30 RMK A01 T02450202  RH  077%=      5-min Rain = 0
KES1 031028Z 05007KT 24/20 A30 RMK A01 T02440202  RH  077%=      5-min Rain = 0
KES1 031029Z 06007KT 24/20 A30 RMK A01 T02440202  RH  077%=      5-min Rain = 0
KES1 031030Z 06006KT 24/20 A30 RMK A01 T02440202  RH  077%=      5-min Rain = 0
KES1 031031Z 06007KT 24/20 A30 RMK A01 T02440202  RH  077%=      5-min Rain = 0
KES1 031032Z 06007KT 24/20 A2999 RMK A01 T02440202  RH  077%=      5-min Rain = 0
KES1 031033Z 07006KT 24/20 A2999 RMK A01 T02440202  RH  077%=      5-min Rain = 0
KES1 031034Z 07006KT 24/20 A2999 RMK A01 T02440202  RH  077%=      5-min Rain = 0
KES1 031035Z 07006KT 24/20 A2999 RMK A01 T02430202  RH  078%=      5-min Rain = 0
KES1 031036Z 08006KT 24/20 A2999 RMK A01 T02420202  RH  078%=      5-min Rain = 0
KES1 031037Z 08006KT 24/20 A30 RMK A01 T02420201  RH  078%=      5-min Rain = 0
KES1 031038Z 08006KT 24/20 A30 RMK A01 T02410201  RH  078%=      5-min Rain = 0
KES1 031039Z 08006KT 24/20 A30 RMK A01 T02410201  RH  078%=      5-min Rain = 0
KES1 031040Z 08006KT 24/20 A30 RMK A01 T02410201  RH  079%=      5-min Rain = 0
KES1 031041Z 09007KT 24/20 A30 RMK A01 T02400201  RH  079%=      5-min Rain = 0
KES1 031042Z 09006KT 24/20 A30 RMK A01 T02400201  RH  079%=      5-min Rain = 0
KES1 031043Z 09007KT 24/20 A30 RMK A01 T02400201  RH  079%=      5-min Rain = 0
KES1 031044Z 09006KT 24/20 A30 RMK A01 T02400201  RH  079%=      5-min Rain = 0
KES1 031045Z 09006KT 24/20 A30 RMK A01 T02400201  RH  079%=      5-min Rain = 0
KES1 031046Z 10006KT 24/20 A30 RMK A01 T02400201  RH  078%=      5-min Rain = 0
KES1 031047Z 09006KT 24/20 A30 RMK A01 T02410201  RH  078%=      5-min Rain = 0
KES1 031048Z 10006KT 24/20 A30 RMK A01 T02420201  RH  078%=      5-min Rain = 0
KES1 031049Z 09007KT 24/20 A30 RMK A01 T02420201  RH  078%=      5-min Rain = 0
KES1 031050Z 09006KT 24/20 A30 RMK A01 T02430201  RH  077%=      5-min Rain = 0
KES1 031051Z 09006KT 24/20 A30 RMK A01 T02440201  RH  077%=      5-min Rain = 0
KES1 031052Z 09007KT 24/20 A30 RMK A01 T02440201  RH  077%=      5-min Rain = 0
KES1 031053Z 09007KT 24/20 A30 RMK A01 T02440201  RH  077%=      5-min Rain = 0
KES1 031054Z 09006KT 24/20 A30 RMK A01 T02440201  RH  077%=      5-min Rain = 0
KES1 031055Z 09006KT 24/20 A30 RMK A01 T02440201  RH  077%=      5-min Rain = 0
KES1 031056Z 09005KT 25/20 A30 RMK A01 T02450201  RH  077%=      5-min Rain = 0
KES1 031057Z 08005KT 24/20 A30 RMK A01 T02440201  RH  077%=      5-min Rain = 0
KES1 031058Z 08005KT 24/20 A3001 RMK A01 T02440201  RH  077%=      5-min Rain = 0
KES1 031059Z 08005KT 24/20 A3001 RMK A01 T02430200  RH  077%=      5-min Rain = 0
KES1 031100Z 08005KT 24/20 A3001 RMK A01 T02420200  RH  077%=      5-min Rain = 0
KES1 031101Z 08005KT 24/20 A3001 RMK A01 T02420200  RH  078%=      5-min Rain = 0
KES1 031102Z 08004KT 24/20 A3001 RMK A01 T02410200  RH  078%=      5-min Rain = 0
KES1 031103Z 08005KT 24/20 A3001 RMK A01 T02410200  RH  078%=      5-min Rain = 0
KES1 031104Z 08005KT 24/20 A3001 RMK A01 T02410201  RH  078%=      5-min Rain = 0
KES1 031105Z 08006KT 24/20 A3001 RMK A01 T02400200  RH  078%=      5-min Rain = 0
KES1 031106Z 08005KT 24/20 A3001 RMK A01 T02410200  RH  078%=      5-min Rain = 0
KES1 031107Z 08005KT 24/20 A3001 RMK A01 T02410200  RH  078%=      5-min Rain = 0
KES1 031108Z 08005KT 24/20 A3001 RMK A01 T02410200  RH  078%=      5-min Rain = 0
KES1 031109Z 08005KT 24/20 A3001 RMK A01 T02410200  RH  078%=      5-min Rain = 0
KES1 031110Z 08005KT 24/20 A3001 RMK A01 T02410200  RH  078%=      5-min Rain = 0
KES1 031111Z 08004KT 24/20 A3001 RMK A01 T02400200  RH  078%=      5-min Rain = 0
KES1 031112Z 08004KT 24/20 A3001 RMK A01 T02400200  RH  078%=      5-min Rain = 0
KES1 031113Z 08005KT 24/20 A3001 RMK A01 T02390200  RH  078%=      5-min Rain = 0
KES1 031114Z 08005KT 24/20 A3001 RMK A01 T02380199  RH  079%=      5-min Rain = 0
KES1 031115Z 08005KT 24/20 A3001 RMK A01 T02380200  RH  079%=      5-min Rain = 0
KES1 031116Z 08005KT 24/20 A3001 RMK A01 T02380199  RH  079%=      5-min Rain = 0
KES1 031117Z 08006KT 24/20 A3001 RMK A01 T02370199  RH  079%=      5-min Rain = 0
KES1 031118Z 09006KT 24/20 A3001 RMK A01 T02370199  RH  079%=      5-min Rain = 0
KES1 031119Z 09006KT 24/20 A30 RMK A01 T02370199  RH  079%=      5-min Rain = 0
KES1 031120Z 09006KT 24/20 A30 RMK A01 T02360198  RH  079%=      5-min Rain = 0
KES1 031121Z 09005KT 24/20 A30 RMK A01 T02370199  RH  079%=      5-min Rain = 0
KES1 031122Z 09005KT 24/20 A30 RMK A01 T02360198  RH  079%=      5-min Rain = 0
KES1 031123Z 10005KT 24/20 A30 RMK A01 T02360199  RH  079%=      5-min Rain = 0
KES1 031124Z 10004KT 24/20 A30 RMK A01 T02360199  RH  079%=      5-min Rain = 0
KES1 031125Z 11004KT 24/20 A30 RMK A01 T02360198  RH  079%=      5-min Rain = 0
KES1 031126Z 11004KT 24/20 A30 RMK A01 T02360198  RH  079%=      5-min Rain = 0
KES1 031127Z 12004KT 24/20 A30 RMK A01 T02360198  RH  079%=      5-min Rain = 0
KES1 031128Z 12003KT 24/20 A30 RMK A01 T02350198  RH  079%=      5-min Rain = 0
KES1 031129Z 12003KT 24/20 A30 RMK A01 T02350198  RH  079%=      5-min Rain = 0
KES1 031130Z 12003KT 24/20 A30 RMK A01 T02350197  RH  079%=      5-min Rain = 0
KES1 031131Z 11004KT 24/20 A30 RMK A01 T02360198  RH  079%=      5-min Rain = 0
KES1 031132Z 11003KT 24/20 A30 RMK A01 T02360197  RH  079%=      5-min Rain = 0
KES1 031133Z 11003KT 24/20 A30 RMK A01 T02360197  RH  079%=      5-min Rain = 0
KES1 031134Z 11003KT 24/20 A30 RMK A01 T02350197  RH  079%=      5-min Rain = 0
KES1 031135Z 10003KT 24/20 A30 RMK A01 T02350197  RH  079%=      5-min Rain = 0
KES1 031136Z 10004KT 23/20 A30 RMK A01 T02340197  RH  080%=      5-min Rain = 0
KES1 031137Z 10004KT 23/20 A30 RMK A01 T02340197  RH  080%=      5-min Rain = 0
KES1 031138Z 10003KT 23/20 A30 RMK A01 T02340197  RH  080%=      5-min Rain = 0
KES1 031139Z 09004KT 23/20 A30 RMK A01 T02330196  RH  080%=      5-min Rain = 0
KES1 031140Z 09003KT 23/20 A30 RMK A01 T02330196  RH  080%=      5-min Rain = 0
KES1 031141Z 09004KT 23/20 A30 RMK A01 T02320196  RH  080%=      5-min Rain = 0
KES1 031142Z 09004KT 23/20 A30 RMK A01 T02320196  RH  080%=      5-min Rain = 0
KES1 031143Z 10003KT 23/20 A30 RMK A01 T02320196  RH  080%=      5-min Rain = 0
KES1 031144Z 10004KT 23/20 A30 RMK A01 T02310196  RH  081%=      5-min Rain = 0
KES1 031145Z 10003KT 23/20 A30 RMK A01 T02310196  RH  081%=      5-min Rain = 0
KES1 031146Z 10003KT 23/20 A30 RMK A01 T02300196  RH  081%=      5-min Rain = 0
KES1 031147Z 10003KT 23/20 A30 RMK A01 T02300196  RH  081%=      5-min Rain = 0
KES1 031148Z 11003KT 23/20 A30 RMK A01 T02300196  RH  081%=      5-min Rain = 0
KES1 031149Z 11003KT 23/20 A30 RMK A01 T02300196  RH  081%=      5-min Rain = 0
KES1 031150Z 12003KT 23/20 A30 RMK A01 T02300196  RH  081%=      5-min Rain = 0
KES1 031151Z 12002KT 23/20 A30 RMK A01 T02300196  RH  081%=      5-min Rain = 0
KES1 031152Z 13002KT 23/20 A30 RMK A01 T02300196  RH  081%=      5-min Rain = 0
KES1 031153Z 14002KT 23/20 A3001 RMK A01 T02310196  RH  081%=      5-min Rain = 0
KES1 031154Z 15003KT 23/20 A3001 RMK A01 T02310196  RH  081%=      5-min Rain = 0
KES1 031155Z 14003KT 23/20 A3001 RMK A01 T02310196  RH  081%=      5-min Rain = 0
KES1 031156Z 14004KT 23/20 A3001 RMK A01 T02320197  RH  081%=      5-min Rain = 0
KES1 031157Z 14004KT 23/20 A3001 RMK A01 T02320196  RH  081%=      5-min Rain = 0
KES1 031158Z 14004KT 23/20 A3001 RMK A01 T02320196  RH  080%=      5-min Rain = 0
KES1 031159Z 14004KT 23/20 A3001 RMK A01 T02320197  RH  080%=      5-min Rain = 0
KES1 031200Z 14004KT 23/20 A3001 RMK A01 T02330197  RH  080%=      5-min Rain = 0
KES1 031201Z 14004KT 23/20 A3001 RMK A01 T02330197  RH  080%=      5-min Rain = 0
KES1 031202Z 13004KT 23/20 A3001 RMK A01 T02340197  RH  080%=      5-min Rain = 0
KES1 031203Z 12004KT 23/20 A3001 RMK A01 T02330197  RH  080%=      5-min Rain = 0
KES1 031204Z 12003KT 23/20 A3001 RMK A01 T02340197  RH  080%=      5-min Rain = 0
KES1 031205Z 11003KT 23/20 A3001 RMK A01 T02340197  RH  080%=      5-min Rain = 0
KES1 031206Z 12003KT 24/20 A3001 RMK A01 T02350197  RH  079%=      5-min Rain = 0
KES1 031207Z 12003KT 23/20 A3001 RMK A01 T02340197  RH  079%=      5-min Rain = 0
KES1 031208Z 11003KT 24/20 A3001 RMK A01 T02350197  RH  079%=      5-min Rain = 0
KES1 031209Z 10003KT 24/20 A3001 RMK A01 T02350197  RH  079%=      5-min Rain = 0
KES1 031210Z 10002KT 24/20 A3001 RMK A01 T02350198  RH  079%=      5-min Rain = 0
KES1 031211Z 09004KT 24/20 A3001 RMK A01 T02360198  RH  079%=      5-min Rain = 0
KES1 031212Z 09004KT 24/20 A3001 RMK A01 T02360198  RH  079%=      5-min Rain = 0
KES1 031213Z 08004KT 24/20 A3001 RMK A01 T02360198  RH  079%=      5-min Rain = 0
KES1 031214Z 07003KT 24/20 A3001 RMK A01 T02360198  RH  079%=      5-min Rain = 0
KES1 031215Z 07004KT 24/20 A3001 RMK A01 T02360198  RH  079%=      5-min Rain = 0
KES1 031216Z 07004KT 24/20 A3001 RMK A01 T02360198  RH  079%=      5-min Rain = 0
KES1 031217Z 07004KT 24/20 A3001 RMK A01 T02360198  RH  079%=      5-min Rain = 0
KES1 031218Z 07003KT 24/20 A3001 RMK A01 T02360198  RH  079%=      5-min Rain = 0
KES1 031219Z 08003KT 24/20 A3002 RMK A01 T02360198  RH  079%=      5-min Rain = 0
KES1 031220Z 08003KT 24/20 A3002 RMK A01 T02350198  RH  080%=      5-min Rain = 0
KES1 031221Z 09003KT 24/20 A3002 RMK A01 T02350198  RH  080%=      5-min Rain = 0
KES1 031222Z 09003KT 24/20 A3002 RMK A01 T02350198  RH  080%=      5-min Rain = 0
KES1 031223Z 10002KT 24/20 A3002 RMK A01 T02350198  RH  080%=      5-min Rain = 0
KES1 031224Z 10003KT 24/20 A3002 RMK A01 T02350198  RH  080%=      5-min Rain = 0
KES1 031225Z 12004KT 24/20 A3002 RMK A01 T02360199  RH  080%=      5-min Rain = 0
KES1 031226Z 11003KT 24/20 A3002 RMK A01 T02360199  RH  079%=      5-min Rain = 0
KES1 031227Z 12004KT 24/20 A3002 RMK A01 T02380200  RH  079%=      5-min Rain = 0
KES1 031228Z 11004KT 24/20 A3002 RMK A01 T02390200  RH  079%=      5-min Rain = 0
KES1 031229Z 11004KT 24/20 A3002 RMK A01 T02400200  RH  078%=      5-min Rain = 0
KES1 031230Z 11004KT 24/20 A3002 RMK A01 T02410199  RH  077%=      5-min Rain = 0
KES1 031231Z 12004KT 24/20 A3002 RMK A01 T02420199  RH  077%=      5-min Rain = 0
KES1 031232Z 11004KT 24/20 A3002 RMK A01 T02430200  RH  077%=      5-min Rain = 0
KES1 031233Z 11004KT 24/20 A3002 RMK A01 T02440199  RH  076%=      5-min Rain = 0
KES1 031234Z 11004KT 24/20 A3002 RMK A01 T02440199  RH  076%=      5-min Rain = 0
KES1 031235Z 11003KT 24/20 A3002 RMK A01 T02440199  RH  076%=      5-min Rain = 0
KES1 031236Z 11003KT 25/20 A3002 RMK A01 T02450200  RH  076%=      5-min Rain = 0
KES1 031237Z 12005KT 25/20 A3002 RMK A01 T02450200  RH  076%=      5-min Rain = 0
KES1 031238Z 12005KT 25/20 A3002 RMK A01 T02460200  RH  075%=      5-min Rain = 0
KES1 031239Z 13003KT 25/20 A3002 RMK A01 T02460200  RH  075%=      5-min Rain = 0
KES1 031240Z 11004KT 25/20 A3002 RMK A01 T02470200  RH  075%=      5-min Rain = 0
KES1 031241Z 13002KT 25/20 A3002 RMK A01 T02470200  RH  075%=      5-min Rain = 0
KES1 031242Z 12003KT 25/20 A3002 RMK A01 T02480201  RH  075%=      5-min Rain = 0
KES1 031243Z 13004KT 25/20 A3002 RMK A01 T02480200  RH  075%=      5-min Rain = 0
KES1 031244Z 13003KT 25/20 A3002 RMK A01 T02490200  RH  074%=      5-min Rain = 0
KES1 031245Z 12005KT 25/20 A3002 RMK A01 T02500201  RH  074%=      5-min Rain = 0
KES1 031246Z 12005KT 25/20 A3002 RMK A01 T02500200  RH  074%=      5-min Rain = 0
KES1 031247Z 13005KT 25/20 A3003 RMK A01 T02500200  RH  074%=      5-min Rain = 0
KES1 031248Z 12005KT 25/20 A3003 RMK A01 T02500200  RH  073%=      5-min Rain = 0
KES1 031249Z 11006KT 25/20 A3003 RMK A01 T02500199  RH  074%=      5-min Rain = 0
KES1 031250Z 12005KT 25/20 A3003 RMK A01 T02500199  RH  074%=      5-min Rain = 0
KES1 031251Z 11004KT 25/20 A3003 RMK A01 T02490200  RH  074%=      5-min Rain = 0
KES1 031252Z 12003KT 25/20 A3003 RMK A01 T02500200  RH  074%=      5-min Rain = 0
KES1 031253Z 11004KT 25/20 A3003 RMK A01 T02510200  RH  074%=      5-min Rain = 0
KES1 031254Z 12006KT 25/20 A3002 RMK A01 T02510199  RH  073%=      5-min Rain = 0
KES1 031255Z 12005KT 25/20 A3002 RMK A01 T02510199  RH  073%=      5-min Rain = 0
KES1 031256Z 11004KT 25/20 A3002 RMK A01 T02510199  RH  073%=      5-min Rain = 0
KES1 031257Z 12004KT 25/20 A3002 RMK A01 T02510199  RH  073%=      5-min Rain = 0
KES1 031258Z 12004KT 25/20 A3002 RMK A01 T02510200  RH  073%=      5-min Rain = 0
KES1 031259Z 12004KT 25/20 A3002 RMK A01 T02510199  RH  073%=      5-min Rain = 0
KES1 031300Z 14003KT 25/20 A3002 RMK A01 T02510200  RH  073%=      5-min Rain = 0
KES1 031301Z 13003KT 25/20 A3002 RMK A01 T02510200  RH  073%=      5-min Rain = 0
KES1 031302Z 12003KT 25/20 A3003 RMK A01 T02520201  RH  073%=      5-min Rain = 0
KES1 031303Z 13004KT 26/20 A3003 RMK A01 T02550202  RH  073%=      5-min Rain = 0
KES1 031304Z 13004KT 26/20 A3003 RMK A01 T02560201  RH  072%=      5-min Rain = 0
KES1 031305Z 15004KT 26/20 A3003 RMK A01 T02560201  RH  071%=      5-min Rain = 0
KES1 031306Z 13004KT 26/20 A3003 RMK A01 T02560201  RH  072%=      5-min Rain = 0
KES1 031307Z 14004KT 26/20 A3003 RMK A01 T02560202  RH  072%=      5-min Rain = 0
KES1 031308Z 14004KT 26/20 A3003 RMK A01 T02570201  RH  071%=      5-min Rain = 0
KES1 031309Z 14004KT 26/20 A3003 RMK A01 T02570201  RH  071%=      5-min Rain = 0
KES1 031310Z 15005KT 26/20 A3003 RMK A01 T02570201  RH  071%=      5-min Rain = 0
KES1 031311Z 13004KT 26/20 A3003 RMK A01 T02580202  RH  071%=      5-min Rain = 0
KES1 031312Z 14006KT 26/20 A3003 RMK A01 T02580202  RH  071%=      5-min Rain = 0
KES1 031313Z 15005KT 26/20 A3003 RMK A01 T02590202  RH  071%=      5-min Rain = 0
KES1 031314Z 15004KT 26/20 A3003 RMK A01 T02590202  RH  071%=      5-min Rain = 0
KES1 031315Z 14005KT 26/20 A3003 RMK A01 T02590202  RH  071%=      5-min Rain = 0
KES1 031316Z 14005KT 26/20 A3003 RMK A01 T02590202  RH  071%=      5-min Rain = 0
KES1 031317Z 16005KT 26/20 A3003 RMK A01 T02600203  RH  071%=      5-min Rain = 0
KES1 031318Z 16005KT 26/20 A3002 RMK A01 T02610203  RH  071%=      5-min Rain = 0
KES1 031319Z 15005KT 26/20 A3002 RMK A01 T02610203  RH  070%=      5-min Rain = 0
KES1 031320Z 16007KT 26/20 A3002 RMK A01 T02620203  RH  070%=      5-min Rain = 0
KES1 031321Z 16005KT 26/20 A3002 RMK A01 T02610203  RH  070%=      5-min Rain = 0
KES1 031322Z 15006KT 26/20 A3002 RMK A01 T02620203  RH  070%=      5-min Rain = 0
KES1 031323Z 17006KT 26/20 A3002 RMK A01 T02620204  RH  070%=      5-min Rain = 0
KES1 031324Z 16007KT 26/20 A3002 RMK A01 T02630204  RH  070%=      5-min Rain = 0
KES1 031325Z 16007KT 26/20 A3003 RMK A01 T02630204  RH  070%=      5-min Rain = 0
KES1 031326Z 16008KT 26/20 A3002 RMK A01 T02640203  RH  069%=      5-min Rain = 0
KES1 031327Z 16006KT 26/20 A3002 RMK A01 T02640203  RH  069%=      5-min Rain = 0
KES1 031328Z 18006KT 26/20 A3002 RMK A01 T02640204  RH  070%=      5-min Rain = 0
KES1 031329Z 18007KT 27/20 A3002 RMK A01 T02650204  RH  069%=      5-min Rain = 0
KES1 031330Z 18008KT 27/20 A3002 RMK A01 T02650203  RH  069%=      5-min Rain = 0
KES1 031331Z 17007KT 27/20 A3002 RMK A01 T02660204  RH  069%=      5-min Rain = 0
KES1 031332Z 16008KT 27/21 A3002 RMK A01 T02670205  RH  069%=      5-min Rain = 0
KES1 031333Z 16007KT 27/21 A3002 RMK A01 T02670205  RH  068%=      5-min Rain = 0
KES1 031334Z 16008KT 27/20 A3002 RMK A01 T02670204  RH  068%=      5-min Rain = 0
KES1 031335Z 18008KT 27/20 A3003 RMK A01 T02680204  RH  068%=      5-min Rain = 0
KES1 031336Z 17007KT 27/20 A3003 RMK A01 T02670204  RH  068%=      5-min Rain = 0
KES1 031337Z 18008KT 27/20 A3003 RMK A01 T02680204  RH  068%=      5-min Rain = 0
KES1 031338Z 18008KT 27/20 A3003 RMK A01 T02680203  RH  068%=      5-min Rain = 0
KES1 031339Z 18007KT 27/20 A3003 RMK A01 T02690203  RH  067%=      5-min Rain = 0
KES1 031340Z 17005KT 27/20 A3003 RMK A01 T02680204  RH  068%=      5-min Rain = 0
KES1 031341Z 18006KT 27/20 A3003 RMK A01 T02690203  RH  067%=      5-min Rain = 0
KES1 031342Z 17006KT 27/20 A3003 RMK A01 T02700204  RH  067%=      5-min Rain = 0
KES1 031343Z 17006KT 27/20 A3003 RMK A01 T02700203  RH  067%=      5-min Rain = 0
KES1 031344Z 16004KT 27/20 A3003 RMK A01 T02700204  RH  067%=      5-min Rain = 0
KES1 031345Z 17006KT 27/20 A3003 RMK A01 T02710204  RH  067%=      5-min Rain = 0
KES1 031346Z 14005KT 27/21 A3003 RMK A01 T02730205  RH  067%=      5-min Rain = 0
KES1 031347Z 14005KT 27/21 A3003 RMK A01 T02740205  RH  066%=      5-min Rain = 0
KES1 031348Z 15006KT 28/21 A3003 RMK A01 T02750205  RH  066%=      5-min Rain = 0
KES1 031349Z 15005KT 28/20 A3003 RMK A01 T02750204  RH  065%=      5-min Rain = 0
KES1 031350Z 15005KT 28/20 A3004 RMK A01 T02750204  RH  065%=      5-min Rain = 0
KES1 031351Z 14004KT 28/21 A3004 RMK A01 T02750205  RH  065%=      5-min Rain = 0
KES1 031352Z 14006KT 28/20 A3004 RMK A01 T02750204  RH  065%=      5-min Rain = 0
KES1 031353Z 14006KT 28/20 A3004 RMK A01 T02760204  RH  065%=      5-min Rain = 0
KES1 031354Z 14006KT 28/20 A3004 RMK A01 T02780204  RH  064%=      5-min Rain = 0
KES1 031355Z 14005KT 28/20 A3004 RMK A01 T02780203  RH  064%=      5-min Rain = 0
KES1 031356Z 14004KT 28/20 A3004 RMK A01 T02790203  RH  063%=      5-min Rain = 0
KES1 031357Z 16003KT 28/20 A3004 RMK A01 T02790203  RH  063%=      5-min Rain = 0
KES1 031358Z 16002KT 28/20 A3004 RMK A01 T02800204  RH  064%=      5-min Rain = 0
KES1 031359Z 15002KT 28/21 A3004 RMK A01 T02810205  RH  063%=      5-min Rain = 0
KES1 031400Z 16005KT 28/20 A3004 RMK A01 T02820204  RH  063%=      5-min Rain = 0
KES1 031401Z 14005KT 28/20 A3004 RMK A01 T02810202  RH  062%=      5-min Rain = 0
KES1 031402Z 14004KT 28/20 A3004 RMK A01 T02800203  RH  063%=      5-min Rain = 0
KES1 031403Z 15004KT 28/20 A3004 RMK A01 T02810203  RH  063%=      5-min Rain = 0
KES1 031404Z 15005KT 28/21 A3004 RMK A01 T02830205  RH  063%=      5-min Rain = 0
KES1 031405Z 15005KT 28/20 A3004 RMK A01 T02830204  RH  062%=      5-min Rain = 0
KES1 031406Z 14004KT 28/20 A3004 RMK A01 T02830203  RH  062%=      5-min Rain = 0
KES1 031407Z 16004KT 28/20 A3004 RMK A01 T02840204  RH  062%=      5-min Rain = 0
KES1 031408Z 17003KT 29/20 A3004 RMK A01 T02850203  RH  061%=      5-min Rain = 0
KES1 031409Z 16004KT 29/20 A3004 RMK A01 T02860202  RH  060%=      5-min Rain = 0
KES1 031410Z 15004KT 28/20 A3004 RMK A01 T02840202  RH  061%=      5-min Rain = 0
KES1 031411Z 14004KT 28/20 A3004 RMK A01 T02840203  RH  061%=      5-min Rain = 0
KES1 031412Z 13005KT 29/20 A3004 RMK A01 T02850204  RH  061%=      5-min Rain = 0
KES1 031413Z 11004KT 29/20 A3004 RMK A01 T02860204  RH  061%=      5-min Rain = 0
KES1 031414Z 10003KT 29/20 A3004 RMK A01 T02860202  RH  060%=      5-min Rain = 0
KES1 031415Z 09004KT 29/20 A3004 RMK A01 T02860203  RH  061%=      5-min Rain = 0
KES1 031416Z 08004KT 29/20 A3004 RMK A01 T02870201  RH  060%=      5-min Rain = 0
KES1 031417Z 08003KT 29/20 A3004 RMK A01 T02880202  RH  060%=      5-min Rain = 0
KES1 031418Z 09006KT 29/20 A3005 RMK A01 T02890203  RH  060%=      5-min Rain = 0
KES1 031419Z 08004KT 29/20 A3005 RMK A01 T02890200  RH  059%=      5-min Rain = 0
KES1 031420Z 08004KT 29/20 A3005 RMK A01 T02880201  RH  059%=      5-min Rain = 0
KES1 031421Z 07004KT 29/20 A3005 RMK A01 T02870200  RH  059%=      5-min Rain = 0
KES1 031422Z 06005KT 29/20 A3005 RMK A01 T02880200  RH  059%=      5-min Rain = 0
KES1 031423Z 04006KT 29/20 A3005 RMK A01 T02880201  RH  060%=      5-min Rain = 0
KES1 031424Z 06009KT 29/20 A3005 RMK A01 T02880202  RH  060%=      5-min Rain = 0
KES1 031425Z 07009KT 29/20 A3005 RMK A01 T02890202  RH  059%=      5-min Rain = 0
KES1 031426Z 07007KT 29/20 A3005 RMK A01 T02890203  RH  060%=      5-min Rain = 0
KES1 031427Z 05008KT 29/20 A3005 RMK A01 T02900204  RH  060%=      5-min Rain = 0
KES1 031428Z 06006KT 29/20 A3005 RMK A01 T02920203  RH  059%=      5-min Rain = 0
KES1 031429Z 07005KT 29/20 A3005 RMK A01 T02930203  RH  059%=      5-min Rain = 0
KES1 031430Z 07003KT 29/20 A3005 RMK A01 T02920202  RH  058%=      5-min Rain = 0
KES1 031431Z 06001KT 29/20 A3005 RMK A01 T02900200  RH  058%=      5-min Rain = 0
KES1 031432Z 08003KT 29/20 A3005 RMK A01 T02900203  RH  059%=      5-min Rain = 0
KES1 031433Z 10005KT 29/20 A3005 RMK A01 T02910203  RH  059%=      5-min Rain = 0
KES1 031434Z 10004KT 29/20 A3005 RMK A01 T02920202  RH  058%=      5-min Rain = 0
KES1 031435Z 09002KT 29/20 A3005 RMK A01 T02900202  RH  059%=      5-min Rain = 0
KES1 031436Z 11004KT 29/20 A3005 RMK A01 T02900203  RH  059%=      5-min Rain = 0
KES1 031437Z 11004KT 29/20 A3005 RMK A01 T02930203  RH  058%=      5-min Rain = 0
KES1 031438Z 12005KT 29/20 A3005 RMK A01 T02930201  RH  058%=      5-min Rain = 0
KES1 031439Z 12005KT 29/20 A3005 RMK A01 T02930200  RH  057%=      5-min Rain = 0
KES1 031440Z 12004KT 29/20 A3005 RMK A01 T02940200  RH  057%=      5-min Rain = 0
KES1 031441Z 13004KT 29/20 A3005 RMK A01 T02940200  RH  057%=      5-min Rain = 0
KES1 031442Z 11004KT 29/20 A3005 RMK A01 T02940202  RH  058%=      5-min Rain = 0
KES1 031443Z 12006KT 30/20 A3005 RMK A01 T02960204  RH  057%=      5-min Rain = 0
KES1 031444Z 11005KT 30/20 A3005 RMK A01 T02980201  RH  056%=      5-min Rain = 0
KES1 031445Z 10004KT 30/20 A3005 RMK A01 T02970199  RH  055%=      5-min Rain = 0
KES1 031446Z 10007KT 30/20 A3005 RMK A01 T02970200  RH  056%=      5-min Rain = 0
KES1 031447Z 11006KT 30/20 A3005 RMK A01 T02960199  RH  056%=      5-min Rain = 0
KES1 031448Z 10006KT 30/20 A3005 RMK A01 T02950199  RH  056%=      5-min Rain = 0
KES1 031449Z 11006KT 30/20 A3005 RMK A01 T02960200  RH  057%=      5-min Rain = 0
KES1 031450Z 10006KT 30/20 A3005 RMK A01 T02970199  RH  056%=      5-min Rain = 0
KES1 031451Z 10005KT 30/20 A3005 RMK A01 T02970199  RH  056%=      5-min Rain = 0
KES1 031452Z 10004KT 30/20 A3005 RMK A01 T02980197  RH  055%=      5-min Rain = 0
KES1 031453Z 13003KT 30/20 A3005 RMK A01 T02980199  RH  055%=      5-min Rain = 0
KES1 031454Z 10003KT 30/20 A3005 RMK A01 T02980199  RH  055%=      5-min Rain = 0
KES1 031455Z 14005KT 30/20 A3004 RMK A01 T02990200  RH  055%=      5-min Rain = 0
KES1 031456Z 15005KT 30/20 A3004 RMK A01 T03010200  RH  055%=      5-min Rain = 0
KES1 031457Z 12002KT 30/20 A3004 RMK A01 T03020200  RH  055%=      5-min Rain = 0
KES1 031458Z 14006KT 30/20 A3004 RMK A01 T03040201  RH  054%=      5-min Rain = 0
KES1 031459Z 13006KT 31/20 A3004 RMK A01 T03060201  RH  053%=      5-min Rain = 0
KES1 031500Z 14004KT 30/20 A3004 RMK A01 T03040199  RH  054%=      5-min Rain = 0
KES1 031501Z 13005KT 30/20 A3004 RMK A01 T03020200  RH  054%=      5-min Rain = 0
KES1 031502Z 16004KT 30/20 A3004 RMK A01 T03020201  RH  055%=      5-min Rain = 0
KES1 031503Z 09004KT 31/20 A3005 RMK A01 T03050201  RH  054%=      5-min Rain = 0
KES1 031504Z 14005KT 31/20 A3005 RMK A01 T03070202  RH  054%=      5-min Rain = 0
KES1 031505Z 14006KT 31/20 A3005 RMK A01 T03090198  RH  052%=      5-min Rain = 0
KES1 031506Z 16004KT 31/20 A3005 RMK A01 T03090198  RH  052%=      5-min Rain = 0
KES1 031507Z 17002KT 31/20 A3005 RMK A01 T03070196  RH  052%=      5-min Rain = 0
KES1 031508Z 14001KT 31/20 A3005 RMK A01 T03050198  RH  053%=      5-min Rain = 0
KES1 031509Z 04001KT 31/20 A3005 RMK A01 T03060198  RH  052%=      5-min Rain = 0
KES1 031510Z 05003KT 31/20 A3005 RMK A01 T03070198  RH  052%=      5-min Rain = 0
KES1 031511Z 08003KT 31/20 A3005 RMK A01 T03090198  RH  052%=      5-min Rain = 0
KES1 031512Z 12006G11KT 31/20 A3005 RMK A01 T03090201  RH  052%=      5-min Rain = 0
KES1 031513Z 12005KT 31/20 A3005 RMK A01 T03110199  RH  051%=      5-min Rain = 0
KES1 031514Z 13003KT 31/20 A3005 RMK A01 T03090198  RH  052%=      5-min Rain = 0
KES1 031515Z 17001KT 31/20 A3005 RMK A01 T03070196  RH  052%=      5-min Rain = 0
KES1 031516Z 08001KT 31/20 A3005 RMK A01 T03060197  RH  052%=      5-min Rain = 0
KES1 031517Z 09002KT 31/20 A3005 RMK A01 T03060198  RH  053%=      5-min Rain = 0
KES1 031518Z 10005KT 31/20 A3005 RMK A01 T03090199  RH  052%=      5-min Rain = 0
KES1 031519Z 10004KT 31/20 A3004 RMK A01 T03100199  RH  051%=      5-min Rain = 0
KES1 031520Z 10003KT 31/20 A3004 RMK A01 T03120200  RH  051%=      5-min Rain = 0
KES1 031521Z 13004KT 31/20 A3004 RMK A01 T03140199  RH  051%=      5-min Rain = 0
KES1 031522Z 15005KT 31/19 A3004 RMK A01 T03140193  RH  049%=      5-min Rain = 0
KES1 031523Z 15003KT 31/19 A3005 RMK A01 T03130193  RH  049%=      5-min Rain = 0
KES1 031524Z 14001KT 31/19 A3005 RMK A01 T03120193  RH  049%=      5-min Rain = 0
KES1 031525Z 13001KT 31/19 A3005 RMK A01 T03120194  RH  050%=      5-min Rain = 0
KES1 031526Z 17001KT 31/19 A3005 RMK A01 T03120193  RH  049%=      5-min Rain = 0
KES1 031527Z 15003KT 31/19 A3005 RMK A01 T03130194  RH  049%=      5-min Rain = 0
KES1 031528Z 12001KT 31/19 A3005 RMK A01 T03130193  RH  049%=      5-min Rain = 0
KES1 031529Z 08002KT 31/20 A3005 RMK A01 T03140195  RH  049%=      5-min Rain = 0
KES1 031530Z 07004KT 32/20 A3005 RMK A01 T03160196  RH  049%=      5-min Rain = 0
KES1 031531Z 05002KT 32/20 A3004 RMK A01 T03150197  RH  049%=      5-min Rain = 0
KES1 031532Z 07002KT 32/20 A3004 RMK A01 T03160198  RH  049%=      5-min Rain = 0
KES1 031533Z 07002KT 32/20 A3004 RMK A01 T03180198  RH  049%=      5-min Rain = 0
KES1 031534Z 11005KT 32/20 A3004 RMK A01 T03200198  RH  048%=      5-min Rain = 0
KES1 031535Z 10004KT 32/20 A3004 RMK A01 T03200196  RH  048%=      5-min Rain = 0
KES1 031536Z 09006KT 32/20 A3004 RMK A01 T03190195  RH  048%=      5-min Rain = 0
KES1 031537Z 10004KT 32/20 A3004 RMK A01 T03180195  RH  048%=      5-min Rain = 0
KES1 031538Z 12005KT 32/20 A3004 RMK A01 T03180196  RH  049%=      5-min Rain = 0
KES1 031539Z 11003KT 32/19 A3004 RMK A01 T03180194  RH  048%=      5-min Rain = 0
KES1 031540Z 11002KT 32/19 A3004 RMK A01 T03160193  RH  048%=      5-min Rain = 0
KES1 031541Z 14003KT 32/19 A3004 RMK A01 T03150193  RH  048%=      5-min Rain = 0
KES1 031542Z 15004KT 32/19 A3004 RMK A01 T03150194  RH  049%=      5-min Rain = 0
KES1 031543Z 12005KT 32/20 A3004 RMK A01 T03170195  RH  048%=      5-min Rain = 0
KES1 031544Z 13002KT 32/20 A3004 RMK A01 T03190196  RH  048%=      5-min Rain = 0
KES1 031545Z 12001KT 32/20 A3004 RMK A01 T03210197  RH  048%=      5-min Rain = 0
KES1 031546Z 15003KT 32/20 A3004 RMK A01 T03230195  RH  047%=      5-min Rain = 0
KES1 031547Z 15003KT 32/19 A3004 RMK A01 T03240193  RH  046%=      5-min Rain = 0
KES1 031548Z 11003KT 32/19 A3004 RMK A01 T03240193  RH  046%=      5-min Rain = 0
KES1 031549Z 09002KT 32/20 A3004 RMK A01 T03240195  RH  046%=      5-min Rain = 0
KES1 031550Z 09003KT 32/19 A3004 RMK A01 T03230194  RH  047%=      5-min Rain = 0
KES1 031551Z 08001KT 32/20 A3004 RMK A01 T03240196  RH  047%=      5-min Rain = 0
KES1 031552Z 13001KT 33/20 A3004 RMK A01 T03270196  RH  046%=      5-min Rain = 0
KES1 031553Z 11002KT 33/20 A3004 RMK A01 T03280196  RH  046%=      5-min Rain = 0
KES1 031554Z 12004KT 33/20 A3004 RMK A01 T03290197  RH  046%=      5-min Rain = 0
KES1 031555Z 11004KT 33/20 A3004 RMK A01 T03290195  RH  045%=      5-min Rain = 0
KES1 031556Z 12003KT 33/19 A3004 RMK A01 T03250193  RH  046%=      5-min Rain = 0
KES1 031557Z 10001KT 32/19 A3004 RMK A01 T03240193  RH  046%=      5-min Rain = 0
KES1 031558Z 12001KT 32/19 A3004 RMK A01 T03240194  RH  046%=      5-min Rain = 0
KES1 031559Z 08002KT 33/19 A3004 RMK A01 T03250190  RH  045%=      5-min Rain = 0
KES1 031600Z 11002KT 33/19 A3004 RMK A01 T03250189  RH  045%=      5-min Rain = 0
KES1 031601Z 07001KT 33/19 A3004 RMK A01 T03250190  RH  045%=      5-min Rain = 0
KES1 031602Z 05001KT 32/19 A3004 RMK A01 T03240189  RH  045%=      5-min Rain = 0
KES1 031603Z 00001KT 32/19 A3004 RMK A01 T03240190  RH  045%=      5-min Rain = 0
KES1 031604Z 35001KT 33/19 A3004 RMK A01 T03250190  RH  045%=      5-min Rain = 0
KES1 031605Z 32000KT 33/19 A3004 RMK A01 T03260189  RH  044%=      5-min Rain = 0
KES1 031606Z 32002KT 33/19 A3004 RMK A01 T03260188  RH  044%=      5-min Rain = 0
KES1 031607Z 36003KT 33/19 A3004 RMK A01 T03250188  RH  044%=      5-min Rain = 0
KES1 031608Z 06004KT 33/19 A3004 RMK A01 T03250191  RH  045%=      5-min Rain = 0
KES1 031609Z 04003KT 33/19 A3004 RMK A01 T03260192  RH  045%=      5-min Rain = 0
KES1 031610Z 04002KT 33/19 A3004 RMK A01 T03260191  RH  045%=      5-min Rain = 0
KES1 031611Z 04006KT 33/19 A3004 RMK A01 T03260192  RH  045%=      5-min Rain = 0
KES1 031612Z 05006KT 33/19 A3004 RMK A01 T03280193  RH  045%=      5-min Rain = 0
KES1 031613Z 06004KT 33/19 A3004 RMK A01 T03300192  RH  044%=      5-min Rain = 0
KES1 031614Z 06003KT 33/20 A3004 RMK A01 T03310195  RH  045%=      5-min Rain = 0
KES1 031615Z 08004KT 34/20 A3004 RMK A01 T03360195  RH  044%=      5-min Rain = 0
KES1 031616Z 09006KT 34/19 A3004 RMK A01 T03370193  RH  043%=      5-min Rain = 0
KES1 031617Z 07005KT 34/19 A3004 RMK A01 T03350190  RH  042%=      5-min Rain = 0
KES1 031618Z 03003KT 34/19 A3004 RMK A01 T03350191  RH  043%=      5-min Rain = 0
KES1 031619Z 09002KT 33/19 A3004 RMK A01 T03330193  RH  044%=      5-min Rain = 0
KES1 031620Z 11004KT 34/19 A3004 RMK A01 T03360193  RH  043%=      5-min Rain = 0
KES1 031621Z 07003KT 34/19 A3004 RMK A01 T03370190  RH  042%=      5-min Rain = 0
KES1 031622Z 03002KT 34/19 A3004 RMK A01 T03360188  RH  042%=      5-min Rain = 0
KES1 031623Z 07004KT 34/19 A3004 RMK A01 T03350189  RH  042%=      5-min Rain = 0
KES1 031624Z 08004KT 34/19 A3004 RMK A01 T03350187  RH  042%=      5-min Rain = 0
KES1 031625Z 07003KT 34/19 A3004 RMK A01 T03360189  RH  042%=      5-min Rain = 0
KES1 031626Z 08004KT 34/19 A3004 RMK A01 T03390190  RH  041%=      5-min Rain = 0
KES1 031627Z 08003KT 34/19 A3004 RMK A01 T03390185  RH  040%=      5-min Rain = 0
KES1 031628Z 06002KT 34/18 A3004 RMK A01 T03350183  RH  041%=      5-min Rain = 0
KES1 031629Z 05001KT 33/19 A3004 RMK A01 T03330185  RH  041%=      5-min Rain = 0
KES1 031630Z 16000KT 33/18 A3004 RMK A01 T03330184  RH  041%=      5-min Rain = 0
KES1 031631Z 11001KT 34/19 A3004 RMK A01 T03350187  RH  042%=      5-min Rain = 0
KES1 031632Z 06001KT 34/19 A3004 RMK A01 T03380188  RH  041%=      5-min Rain = 0
KES1 031633Z 06001KT 34/19 A3004 RMK A01 T03420187  RH  040%=      5-min Rain = 0
KES1 031634Z 10001KT 35/19 A3004 RMK A01 T03450189  RH  040%=      5-min Rain = 0
KES1 031635Z 15001KT 35/19 A3004 RMK A01 T03460187  RH  039%=      5-min Rain = 0
KES1 031636Z 13003KT 34/19 A3004 RMK A01 T03440189  RH  040%=      5-min Rain = 0
KES1 031637Z 14004KT 35/19 A3004 RMK A01 T03450187  RH  039%=      5-min Rain = 0
KES1 031638Z 15004KT 35/19 A3004 RMK A01 T03450188  RH  040%=      5-min Rain = 0
KES1 031639Z 21003KT 35/19 A3004 RMK A01 T03450186  RH  039%=      5-min Rain = 0
KES1 031640Z 20005KT 35/19 A3004 RMK A01 T03450187  RH  039%=      5-min Rain = 0
KES1 031641Z 19003KT 35/19 A3004 RMK A01 T03450186  RH  039%=      5-min Rain = 0
KES1 031642Z 20002KT 34/19 A3004 RMK A01 T03430185  RH  039%=      5-min Rain = 0
KES1 031643Z 20004KT 34/19 A3003 RMK A01 T03430186  RH  039%=      5-min Rain = 0
KES1 031644Z 21006KT 35/18 A3003 RMK A01 T03450184  RH  039%=      5-min Rain = 0
KES1 031645Z 21005KT 35/18 A3003 RMK A01 T03450182  RH  038%=      5-min Rain = 0
KES1 031646Z 23002KT 34/18 A3003 RMK A01 T03440179  RH  038%=      5-min Rain = 0
KES1 031647Z 24002KT 34/18 A3003 RMK A01 T03430181  RH  038%=      5-min Rain = 0
KES1 031648Z 22005KT 35/18 A3003 RMK A01 T03450182  RH  038%=      5-min Rain = 0
KES1 031649Z 22003KT 35/18 A3003 RMK A01 T03470179  RH  037%=      5-min Rain = 0
KES1 031650Z 23003KT 35/18 A3003 RMK A01 T03460180  RH  037%=      5-min Rain = 0
KES1 031651Z 24003KT 35/18 A3003 RMK A01 T03450180  RH  038%=      5-min Rain = 0
KES1 031652Z 21003KT 35/18 A3003 RMK A01 T03470182  RH  038%=      5-min Rain = 0
KES1 031653Z 16003KT 35/18 A3003 RMK A01 T03480182  RH  037%=      5-min Rain = 0
KES1 031654Z 14001KT 35/18 A3003 RMK A01 T03470180  RH  037%=      5-min Rain = 0
KES1 031655Z 13002KT 35/19 A3003 RMK A01 T03470185  RH  038%=      5-min Rain = 0
KES1 031656Z 18002G8KT 35/18 A3003 RMK A01 T03500182  RH  037%=      5-min Rain = 0
KES1 031657Z 17006KT 35/18 A3003 RMK A01 T03510178  RH  036%=      5-min Rain = 0
KES1 031658Z 10004KT 35/17 A3003 RMK A01 T03480174  RH  036%=      5-min Rain = 0
KES1 031659Z 17002KT 35/18 A3003 RMK A01 T03450176  RH  037%=      5-min Rain = 0
KES1 031700Z 18005KT 35/17 A3003 RMK A01 T03460171  RH  035%=      5-min Rain = 0
KES1 031701Z 19003KT 35/17 A3003 RMK A01 T03450170  RH  035%=      5-min Rain = 0
KES1 031702Z 16002KT 34/18 A3003 RMK A01 T03430177  RH  037%=      5-min Rain = 0
KES1 031703Z 18003KT 34/18 A3003 RMK A01 T03430176  RH  037%=      5-min Rain = 0
KES1 031704Z 21004KT 34/18 A3003 RMK A01 T03440177  RH  037%=      5-min Rain = 0
KES1 031705Z 20001KT 34/18 A3003 RMK A01 T03440175  RH  037%=      5-min Rain = 0
KES1 031706Z 23000KT 34/18 A3003 RMK A01 T03440177  RH  037%=      5-min Rain = 0
KES1 031707Z 30002KT 35/18 A3003 RMK A01 T03450178  RH  037%=      5-min Rain = 0
KES1 031708Z 01001KT 35/18 A3003 RMK A01 T03450177  RH  037%=      5-min Rain = 0
KES1 031709Z 01001KT 35/18 A3003 RMK A01 T03450177  RH  037%=      5-min Rain = 0
KES1 031710Z 05001KT 34/18 A3003 RMK A01 T03440177  RH  037%=      5-min Rain = 0
KES1 031711Z 03001KT 34/18 A3003 RMK A01 T03440179  RH  038%=      5-min Rain = 0
KES1 031712Z 01002KT 35/18 A3003 RMK A01 T03460179  RH  037%=      5-min Rain = 0
KES1 031713Z 06005KT 35/18 A3003 RMK A01 T03490182  RH  037%=      5-min Rain = 0
KES1 031714Z 12005KT 35/18 A3003 RMK A01 T03530183  RH  037%=      5-min Rain = 0
KES1 031715Z 10004KT 35/18 A3003 RMK A01 T03530182  RH  037%=      5-min Rain = 0
KES1 031716Z 11006KT 35/18 A3003 RMK A01 T03530183  RH  037%=      5-min Rain = 0
KES1 031717Z 13005KT 35/18 A3003 RMK A01 T03530181  RH  036%=      5-min Rain = 0
KES1 031718Z 14005KT 35/19 A3003 RMK A01 T03540185  RH  037%=      5-min Rain = 0
KES1 031719Z 15007KT 36/19 A3003 RMK A01 T03600185  RH  036%=      5-min Rain = 0
KES1 031720Z 15006KT 36/18 A3003 RMK A01 T03600182  RH  035%=      5-min Rain = 0
KES1 031721Z 13004KT 36/18 A3003 RMK A01 T03580178  RH  035%=      5-min Rain = 0
KES1 031722Z 10002KT 35/17 A3003 RMK A01 T03530174  RH  035%=      5-min Rain = 0
KES1 031723Z 14002KT 35/18 A3003 RMK A01 T03480175  RH  036%=      5-min Rain = 0
KES1 031724Z 14004KT 35/18 A3003 RMK A01 T03490178  RH  036%=      5-min Rain = 0
KES1 031725Z 11002KT 35/18 A3003 RMK A01 T03490177  RH  036%=      5-min Rain = 0
KES1 031726Z 02002KT 35/18 A3003 RMK A01 T03500177  RH  036%=      5-min Rain = 0
KES1 031727Z 11003KT 35/18 A3003 RMK A01 T03530181  RH  036%=      5-min Rain = 0
KES1 031728Z 12003KT 36/18 A3003 RMK A01 T03550178  RH  035%=      5-min Rain = 0
KES1 031729Z 18003KT 36/18 A3003 RMK A01 T03550176  RH  035%=      5-min Rain = 0
KES1 031730Z 22005KT 36/18 A3003 RMK A01 T03560175  RH  034%=      5-min Rain = 0
KES1 031731Z 28003KT 35/17 A3003 RMK A01 T03540172  RH  034%=      5-min Rain = 0
KES1 031732Z 32002KT 35/17 A3003 RMK A01 T03520173  RH  035%=      5-min Rain = 0
KES1 031733Z 04003KT 35/17 A3003 RMK A01 T03510174  RH  035%=      5-min Rain = 0
KES1 031734Z 07006KT 35/18 A3002 RMK A01 T03540181  RH  036%=      5-min Rain = 0
KES1 031735Z 07005KT 36/18 A3002 RMK A01 T03550178  RH  035%=      5-min Rain = 0
KES1 031736Z 08008KT 36/18 A3002 RMK A01 T03550179  RH  035%=      5-min Rain = 0
KES1 031737Z 05006KT 35/18 A3002 RMK A01 T03540178  RH  035%=      5-min Rain = 0
KES1 031738Z 09006KT 35/18 A3002 RMK A01 T03540178  RH  035%=      5-min Rain = 0
KES1 031739Z 10007KT 35/18 A3002 RMK A01 T03540178  RH  035%=      5-min Rain = 0
KES1 031740Z 10005KT 35/18 A3002 RMK A01 T03500176  RH  036%=      5-min Rain = 0
KES1 031741Z 10002KT 35/18 A3002 RMK A01 T03480175  RH  036%=      5-min Rain = 0
KES1 031742Z 09002KT 35/18 A3002 RMK A01 T03480175  RH  036%=      5-min Rain = 0
KES1 031743Z 09005KT 35/18 A3002 RMK A01 T03500175  RH  036%=      5-min Rain = 0
KES1 031744Z 10006KT 35/18 A3002 RMK A01 T03530175  RH  035%=      5-min Rain = 0
KES1 031745Z 12007KT 36/17 A3002 RMK A01 T03570172  RH  033%=      5-min Rain = 0
KES1 031746Z 14009KT 36/17 A3002 RMK A01 T03580172  RH  033%=      5-min Rain = 0
KES1 031747Z 14009KT 36/17 A3002 RMK A01 T03600171  RH  033%=      5-min Rain = 0
KES1 031748Z 12007KT 36/17 A3002 RMK A01 T03600171  RH  033%=      5-min Rain = 0
KES1 031749Z 13006KT 36/17 A3002 RMK A01 T03600167  RH  032%=      5-min Rain = 0
KES1 031750Z 14004KT 36/16 A3002 RMK A01 T03580164  RH  032%=      5-min Rain = 0
KES1 031751Z 18003KT 36/17 A3002 RMK A01 T03570165  RH  032%=      5-min Rain = 0
KES1 031752Z 15004KT 36/17 A3002 RMK A01 T03600168  RH  032%=      5-min Rain = 0
KES1 031753Z 17005KT 36/17 A3002 RMK A01 T03640165  RH  031%=      5-min Rain = 0
KES1 031754Z 18005KT 36/17 A3002 RMK A01 T03630165  RH  031%=      5-min Rain = 0
KES1 031755Z 20003KT 36/16 A3002 RMK A01 T03610164  RH  031%=      5-min Rain = 0
KES1 031756Z 18004KT 36/17 A3002 RMK A01 T03590165  RH  032%=      5-min Rain = 0
KES1 031757Z 18004KT 36/16 A3002 RMK A01 T03590162  RH  031%=      5-min Rain = 0
KES1 031758Z 14003KT 36/16 A3002 RMK A01 T03590164  RH  032%=      5-min Rain = 0
KES1 031759Z 10004KT 36/16 A3002 RMK A01 T03600162  RH  031%=      5-min Rain = 0
KES1 031800Z 09002KT 36/16 A3002 RMK A01 T03600162  RH  031%=      5-min Rain = 0
KES1 031801Z 05003KT 36/16 A3002 RMK A01 T03580160  RH  031%=      5-min Rain = 0
KES1 031802Z 06003KT 36/16 A3002 RMK A01 T03560159  RH  031%=      5-min Rain = 0
KES1 031803Z 02003KT 36/16 A3002 RMK A01 T03560157  RH  031%=      5-min Rain = 0
KES1 031804Z 03003KT 36/16 A3002 RMK A01 T03550156  RH  031%=      5-min Rain = 0
KES1 031805Z 04005KT 36/16 A3002 RMK A01 T03560159  RH  031%=      5-min Rain = 0
KES1 031806Z 03006KT 36/16 A3002 RMK A01 T03580158  RH  031%=      5-min Rain = 0
KES1 031807Z 02006KT 36/16 A3002 RMK A01 T03590161  RH  031%=      5-min Rain = 0
KES1 031808Z 02004KT 36/16 A3002 RMK A01 T03600160  RH  031%=      5-min Rain = 0
KES1 031809Z 10005KT 36/17 A3002 RMK A01 T03610165  RH  031%=      5-min Rain = 0
KES1 031810Z 12003KT 37/17 A3002 RMK A01 T03660167  RH  031%=      5-min Rain = 0
KES1 031811Z 15005KT 37/17 A3002 RMK A01 T03680165  RH  030%=      5-min Rain = 0
KES1 031812Z 15007KT 37/17 A3002 RMK A01 T03680167  RH  031%=      5-min Rain = 0
KES1 031813Z 16005KT 37/17 A3002 RMK A01 T03690165  RH  030%=      5-min Rain = 0
KES1 031814Z 13006KT 37/17 A3002 RMK A01 T03690166  RH  030%=      5-min Rain = 0
KES1 031815Z 16007KT 37/16 A3002 RMK A01 T03690163  RH  030%=      5-min Rain = 0
KES1 031816Z 16004KT 37/16 A3002 RMK A01 T03690162  RH  029%=      5-min Rain = 0
KES1 031817Z 15005G11KT 37/16 A3002 RMK A01 T03680159  RH  029%=      5-min Rain = 0
KES1 031818Z 14008KT 37/16 A3002 RMK A01 T03670157  RH  029%=      5-min Rain = 0
KES1 031819Z 11005KT 37/15 A3002 RMK A01 T03650153  RH  028%=      5-min Rain = 0
KES1 031820Z 09004KT 36/16 A3002 RMK A01 T03630155  RH  029%=      5-min Rain = 0
KES1 031821Z 11007KT 36/15 A3002 RMK A01 T03640154  RH  029%=      5-min Rain = 0
KES1 031822Z 12003KT 37/15 A3002 RMK A01 T03650147  RH  027%=      5-min Rain = 0
KES1 031823Z 04002KT 37/15 A3001 RMK A01 T03660149  RH  028%=      5-min Rain = 0
KES1 031824Z 01002KT 37/15 A3001 RMK A01 T03670151  RH  028%=      5-min Rain = 0
KES1 031825Z 03001KT 37/15 A3001 RMK A01 T03680153  RH  028%=      5-min Rain = 0
KES1 031826Z 09002KT 37/16 A3001 RMK A01 T03680156  RH  029%=      5-min Rain = 0
KES1 031827Z 13002KT 37/16 A3001 RMK A01 T03710160  RH  029%=      5-min Rain = 0
KES1 031828Z 09004KT 37/16 A3001 RMK A01 T03740159  RH  028%=      5-min Rain = 0
KES1 031829Z 12004KT 37/16 A3001 RMK A01 T03740161  RH  029%=      5-min Rain = 0
KES1 031830Z 16005KT 37/16 A3001 RMK A01 T03720161  RH  029%=      5-min Rain = 0
KES1 031831Z 16006KT 37/16 A3001 RMK A01 T03710158  RH  028%=      5-min Rain = 0
KES1 031832Z 18003KT 37/16 A3001 RMK A01 T03700160  RH  029%=      5-min Rain = 0
KES1 031833Z 14005KT 37/16 A3001 RMK A01 T03700162  RH  029%=      5-min Rain = 0
KES1 031834Z 16006KT 37/17 A3001 RMK A01 T03730166  RH  030%=      5-min Rain = 0
KES1 031835Z 13006KT 38/17 A3001 RMK A01 T03770166  RH  029%=      5-min Rain = 0
KES1 031836Z 13006KT 38/16 A3001 RMK A01 T03790164  RH  028%=      5-min Rain = 0
KES1 031837Z 15010KT 38/16 A3001 RMK A01 T03780162  RH  028%=      5-min Rain = 0
KES1 031838Z 14009KT 37/16 A3001 RMK A01 T03740157  RH  028%=      5-min Rain = 0
KES1 031839Z 14009KT 37/16 A3001 RMK A01 T03690157  RH  028%=      5-min Rain = 0
KES1 031840Z 11007KT 37/16 A3001 RMK A01 T03680158  RH  029%=      5-min Rain = 0
KES1 031841Z 10006KT 37/16 A3001 RMK A01 T03670157  RH  029%=      5-min Rain = 0
KES1 031842Z 08006KT 36/16 A3001 RMK A01 T03630157  RH  029%=      5-min Rain = 0
KES1 031843Z 07006KT 36/16 A3001 RMK A01 T03630158  RH  030%=      5-min Rain = 0
KES1 031844Z 06006KT 37/16 A3001 RMK A01 T03650155  RH  029%=      5-min Rain = 0
KES1 031845Z 28001KT 36/15 A3001 RMK A01 T03630152  RH  029%=      5-min Rain = 0
KES1 031846Z 21001KT 36/15 A3001 RMK A01 T03620154  RH  029%=      5-min Rain = 0
KES1 031847Z 15001KT 36/16 A3001 RMK A01 T03640155  RH  029%=      5-min Rain = 0
KES1 031848Z 11009KT 37/16 A3001 RMK A01 T03650157  RH  029%=      5-min Rain = 0
KES1 031849Z 12009KT 37/16 A3001 RMK A01 T03680158  RH  029%=      5-min Rain = 0
KES1 031850Z 13010KT 37/16 A3001 RMK A01 T03680156  RH  029%=      5-min Rain = 0
KES1 031851Z 15008KT 37/16 A3001 RMK A01 T03670159  RH  029%=      5-min Rain = 0
KES1 031852Z 14009KT 37/16 A3001 RMK A01 T03680158  RH  029%=      5-min Rain = 0
KES1 031853Z 14007KT 37/16 A3001 RMK A01 T03680156  RH  029%=      5-min Rain = 0
KES1 031854Z 12004KT 37/16 A3001 RMK A01 T03660157  RH  029%=      5-min Rain = 0
KES1 031855Z 15005G10KT 37/16 A3001 RMK A01 T03690158  RH  029%=      5-min Rain = 0
KES1 031856Z 19004KT 37/16 A3001 RMK A01 T03720158  RH  028%=      5-min Rain = 0
KES1 031857Z 20003KT 37/16 A3001 RMK A01 T03700155  RH  028%=      5-min Rain = 0
KES1 031858Z 17009KT 37/16 A3001 RMK A01 T03680159  RH  029%=      5-min Rain = 0
KES1 031859Z 16010KT 37/16 A3001 RMK A01 T03700157  RH  028%=      5-min Rain = 0
KES1 031900Z 12007KT 37/16 A3001 RMK A01 T03710156  RH  028%=      5-min Rain = 0
KES1 031901Z 11005KT 37/16 A3001 RMK A01 T03670155  RH  028%=      5-min Rain = 0
KES1 031902Z 20005KT 36/16 A3001 RMK A01 T03640156  RH  029%=      5-min Rain = 0
KES1 031903Z 22006KT 37/16 A3001 RMK A01 T03650156  RH  029%=      5-min Rain = 0
KES1 031904Z 21006KT 37/16 A3001 RMK A01 T03660157  RH  029%=      5-min Rain = 0
KES1 031905Z 13006KT 37/16 A3001 RMK A01 T03690160  RH  029%=      5-min Rain = 0
KES1 031906Z 10002KT 37/16 A3001 RMK A01 T03710156  RH  028%=      5-min Rain = 0
KES1 031907Z 15003G8KT 37/16 A3001 RMK A01 T03690159  RH  029%=      5-min Rain = 0
KES1 031908Z 16006KT 37/16 A3001 RMK A01 T03720160  RH  029%=      5-min Rain = 0
KES1 031909Z 18006KT 37/16 A3001 RMK A01 T03740161  RH  028%=      5-min Rain = 0
KES1 031910Z 20005KT 38/16 A3001 RMK A01 T03760159  RH  028%=      5-min Rain = 0
KES1 031911Z 15004KT 38/16 A3001 RMK A01 T03750160  RH  028%=      5-min Rain = 0
KES1 031912Z 12005KT 38/16 A3001 RMK A01 T03750159  RH  028%=      5-min Rain = 0
KES1 031913Z 11007KT 37/16 A3001 RMK A01 T03740160  RH  028%=      5-min Rain = 0
KES1 031914Z 12006KT 37/16 A30 RMK A01 T03730159  RH  028%=      5-min Rain = 0
KES1 031915Z 13007KT 37/16 A30 RMK A01 T03710157  RH  028%=      5-min Rain = 0
KES1 031916Z 14007KT 37/16 A30 RMK A01 T03690157  RH  029%=      5-min Rain = 0
KES1 031917Z 14005KT 37/16 A30 RMK A01 T03700158  RH  029%=      5-min Rain = 0
KES1 031918Z 13003KT 37/16 A30 RMK A01 T03710159  RH  029%=      5-min Rain = 0
KES1 031919Z 10006KT 37/16 A30 RMK A01 T03730161  RH  029%=      5-min Rain = 0
KES1 031920Z 11011KT 38/16 A30 RMK A01 T03790164  RH  028%=      5-min Rain = 0
KES1 031921Z 10010KT 38/16 A30 RMK A01 T03810162  RH  028%=      5-min Rain = 0
KES1 031922Z 10006KT 38/16 A30 RMK A01 T03770159  RH  028%=      5-min Rain = 0
KES1 031923Z 08004KT 37/16 A30 RMK A01 T03720158  RH  028%=      5-min Rain = 0
KES1 031924Z 05006KT 37/16 A30 RMK A01 T03700160  RH  029%=      5-min Rain = 0
KES1 031925Z 08008KT 37/16 A30 RMK A01 T03730160  RH  029%=      5-min Rain = 0
KES1 031926Z 09009KT 37/16 A30 RMK A01 T03740159  RH  028%=      5-min Rain = 0
KES1 031927Z 06006KT 37/16 A30 RMK A01 T03720158  RH  028%=      5-min Rain = 0
KES1 031928Z 03005KT 37/16 A30 RMK A01 T03710157  RH  028%=      5-min Rain = 0
KES1 031929Z 03005KT 37/16 A30 RMK A01 T03710157  RH  028%=      5-min Rain = 0
KES1 031930Z 05005KT 38/16 A30 RMK A01 T03760163  RH  029%=      5-min Rain = 0
KES1 031931Z 08006KT 38/16 A30 RMK A01 T03810162  RH  028%=      5-min Rain = 0
KES1 031932Z 12008KT 38/16 A30 RMK A01 T03810159  RH  027%=      5-min Rain = 0
KES1 031933Z 13007KT 38/16 A2999 RMK A01 T03770157  RH  027%=      5-min Rain = 0
KES1 031934Z 06005KT 38/16 A30 RMK A01 T03770160  RH  028%=      5-min Rain = 0
KES1 031935Z 05007KT 38/16 A2999 RMK A01 T03780158  RH  027%=      5-min Rain = 0
KES1 031936Z 05005KT 38/16 A2999 RMK A01 T03780161  RH  028%=      5-min Rain = 0
KES1 031937Z 04006KT 38/16 A2999 RMK A01 T03840164  RH  027%=      5-min Rain = 0
KES1 031938Z 04009KT 39/16 A2999 RMK A01 T03870160  RH  026%=      5-min Rain = 0
KES1 031939Z 02007KT 39/16 A2999 RMK A01 T03850157  RH  026%=      5-min Rain = 0
KES1 031940Z 03005KT 38/16 A2999 RMK A01 T03780156  RH  027%=      5-min Rain = 0
KES1 031941Z 05004KT 38/16 A2999 RMK A01 T03790161  RH  028%=      5-min Rain = 0
KES1 031942Z 03003KT 38/16 A30 RMK A01 T03830158  RH  027%=      5-min Rain = 0
KES1 031943Z 08001KT 38/16 A2999 RMK A01 T03830157  RH  026%=      5-min Rain = 0
KES1 031944Z 12010G18KT 38/16 A2999 RMK A01 T03820160  RH  027%=      5-min Rain = 0
KES1 031945Z 13007KT 38/16 A2999 RMK A01 T03800158  RH  027%=      5-min Rain = 0
KES1 031946Z 11009KT 38/16 A2999 RMK A01 T03760159  RH  028%=      5-min Rain = 0
KES1 031947Z 09010KT 37/16 A2999 RMK A01 T03720158  RH  028%=      5-min Rain = 0
KES1 031948Z 08008KT 37/16 A2999 RMK A01 T03690160  RH  029%=      5-min Rain = 0
KES1 031949Z 08009KT 37/16 A2999 RMK A01 T03680160  RH  029%=      5-min Rain = 0
KES1 031950Z 09006KT 37/16 A2999 RMK A01 T03670156  RH  029%=      5-min Rain = 0
KES1 031951Z 09005KT 36/16 A2999 RMK A01 T03640156  RH  029%=      5-min Rain = 0
KES1 031952Z 10009KT 36/16 A2999 RMK A01 T03640158  RH  030%=      5-min Rain = 0
KES1 031953Z 10010KT 37/16 A2999 RMK A01 T03650157  RH  029%=      5-min Rain = 0
KES1 031954Z 11010KT 37/16 A2999 RMK A01 T03690159  RH  029%=      5-min Rain = 0
KES1 031955Z 09008KT 37/16 A2999 RMK A01 T03700158  RH  029%=      5-min Rain = 0
KES1 031956Z 07005KT 37/16 A2999 RMK A01 T03720159  RH  028%=      5-min Rain = 0
KES1 031957Z 05005KT 37/16 A2999 RMK A01 T03740159  RH  028%=      5-min Rain = 0
KES1 031958Z 05005KT 38/16 A2999 RMK A01 T03760159  RH  028%=      5-min Rain = 0
KES1 031959Z 08008KT 38/16 A2999 RMK A01 T03820161  RH  027%=      5-min Rain = 0
KES1 032000Z 07010KT 38/16 A2999 RMK A01 T03820158  RH  027%=      5-min Rain = 0
KES1 032001Z 05008G14KT 38/16 A2999 RMK A01 T03810157  RH  027%=      5-min Rain = 0
KES1 032002Z 06004KT 38/16 A2999 RMK A01 T03780155  RH  027%=      5-min Rain = 0
KES1 032003Z 06006KT 38/16 A2999 RMK A01 T03760157  RH  027%=      5-min Rain = 0
KES1 032004Z 07006KT 38/16 A2999 RMK A01 T03770156  RH  027%=      5-min Rain = 0
KES1 032005Z 09003KT 38/16 A2999 RMK A01 T03770157  RH  027%=      5-min Rain = 0
KES1 032006Z 05003KT 38/16 A2999 RMK A01 T03780158  RH  027%=      5-min Rain = 0
KES1 032007Z 07005KT 38/16 A2999 RMK A01 T03800158  RH  027%=      5-min Rain = 0
KES1 032008Z 08005KT 38/16 A2999 RMK A01 T03810160  RH  027%=      5-min Rain = 0
KES1 032009Z 07005KT 38/16 A2999 RMK A01 T03830159  RH  027%=      5-min Rain = 0
KES1 032010Z 09010KT 38/16 A2998 RMK A01 T03840161  RH  027%=      5-min Rain = 0
KES1 032011Z 09009KT 38/16 A2998 RMK A01 T03830159  RH  027%=      5-min Rain = 0
KES1 032012Z 10012KT 38/16 A2998 RMK A01 T03820159  RH  027%=      5-min Rain = 0
KES1 032013Z 09010KT 38/16 A2998 RMK A01 T03840159  RH  027%=      5-min Rain = 0
KES1 032014Z 09011KT 39/16 A2998 RMK A01 T03880160  RH  026%=      5-min Rain = 0
KES1 032015Z 10011KT 39/16 A2998 RMK A01 T03880158  RH  026%=      5-min Rain = 0
KES1 032016Z 09010KT 39/16 A2998 RMK A01 T03860159  RH  026%=      5-min Rain = 0
KES1 032017Z 12008KT 38/16 A2998 RMK A01 T03840158  RH  026%=      5-min Rain = 0
KES1 032018Z 13003KT 38/16 A2998 RMK A01 T03820158  RH  027%=      5-min Rain = 0
KES1 032019Z 10002KT 38/16 A2998 RMK A01 T03840161  RH  027%=      5-min Rain = 0
KES1 032020Z 12003KT 39/16 A2998 RMK A01 T03860160  RH  026%=      5-min Rain = 0
KES1 032021Z 14004KT 39/16 A2998 RMK A01 T03880161  RH  026%=      5-min Rain = 0
KES1 032022Z 13004KT 39/16 A2998 RMK A01 T03870158  RH  026%=      5-min Rain = 0
KES1 032023Z 12006KT 39/16 A2998 RMK A01 T03850158  RH  026%=      5-min Rain = 0
KES1 032024Z 14006KT 38/16 A2998 RMK A01 T03840156  RH  026%=      5-min Rain = 0
KES1 032025Z 19005KT 39/16 A2998 RMK A01 T03880158  RH  026%=      5-min Rain = 0
KES1 032026Z 19006KT 39/16 A2998 RMK A01 T03910157  RH  025%=      5-min Rain = 0
KES1 032027Z 15008KT 39/16 A2998 RMK A01 T03920156  RH  025%=      5-min Rain = 0
KES1 032028Z 14007KT 39/16 A2998 RMK A01 T03920155  RH  025%=      5-min Rain = 0
KES1 032029Z 15007KT 39/15 A2998 RMK A01 T03890154  RH  025%=      5-min Rain = 0
KES1 032030Z 17006KT 39/16 A2998 RMK A01 T03860156  RH  026%=      5-min Rain = 0
KES1 032031Z 15005KT 38/16 A2998 RMK A01 T03820157  RH  027%=      5-min Rain = 0
KES1 032032Z 11006KT 38/16 A2998 RMK A01 T03840158  RH  026%=      5-min Rain = 0
KES1 032033Z 11005KT 39/16 A2998 RMK A01 T03860161  RH  027%=      5-min Rain = 0
KES1 032034Z 10009KT 39/16 A2998 RMK A01 T03870162  RH  027%=      5-min Rain = 0
KES1 032035Z 10008KT 39/16 A2998 RMK A01 T03860162  RH  027%=      5-min Rain = 0
KES1 032036Z 11008KT 39/16 A2998 RMK A01 T03860161  RH  027%=      5-min Rain = 0
KES1 032037Z 11007KT 39/16 A2998 RMK A01 T03850159  RH  027%=      5-min Rain = 0
KES1 032038Z 09008KT 38/16 A2998 RMK A01 T03830160  RH  027%=      5-min Rain = 0
KES1 032039Z 08006KT 38/16 A2998 RMK A01 T03830158  RH  027%=      5-min Rain = 0
KES1 032040Z 09006KT 38/16 A2998 RMK A01 T03820158  RH  027%=      5-min Rain = 0
KES1 032041Z 13009KT 38/16 A2998 RMK A01 T03810158  RH  027%=      5-min Rain = 0
KES1 032042Z 14007KT 38/16 A2998 RMK A01 T03810158  RH  027%=      5-min Rain = 0
KES1 032043Z 14008KT 38/16 A2998 RMK A01 T03810158  RH  027%=      5-min Rain = 0
KES1 032044Z 12006KT 38/16 A2998 RMK A01 T03840161  RH  027%=      5-min Rain = 0
KES1 032045Z 11007KT 39/16 A2998 RMK A01 T03890162  RH  027%=      5-min Rain = 0
KES1 032046Z 10006KT 39/16 A2998 RMK A01 T03880159  RH  026%=      5-min Rain = 0
KES1 032047Z 13005KT 38/16 A2998 RMK A01 T03830158  RH  027%=      5-min Rain = 0
KES1 032048Z 19004KT 38/16 A2998 RMK A01 T03810157  RH  027%=      5-min Rain = 0
KES1 032049Z 14007KT 38/16 A2998 RMK A01 T03840160  RH  027%=      5-min Rain = 0
KES1 032050Z 15008KT 39/16 A2998 RMK A01 T03880159  RH  026%=      5-min Rain = 0
KES1 032051Z 16007KT 39/16 A2998 RMK A01 T03880160  RH  026%=      5-min Rain = 0
KES1 032052Z 14006KT 39/16 A2998 RMK A01 T03890160  RH  026%=      5-min Rain = 0
KES1 032053Z 16002KT 39/16 A2998 RMK A01 T03880156  RH  026%=      5-min Rain = 0
KES1 032054Z 17004KT 39/16 A2997 RMK A01 T03860158  RH  026%=      5-min Rain = 0
KES1 032055Z 15009KT 39/16 A2998 RMK A01 T03860161  RH  027%=      5-min Rain = 0
KES1 032056Z 15009KT 39/16 A2997 RMK A01 T03890160  RH  026%=      5-min Rain = 0
KES1 032057Z 14007KT 39/16 A2997 RMK A01 T03900158  RH  026%=      5-min Rain = 0
KES1 032058Z 14006KT 39/16 A2997 RMK A01 T03880157  RH  026%=      5-min Rain = 0
KES1 032059Z 14005KT 39/16 A2997 RMK A01 T03870156  RH  026%=      5-min Rain = 0
KES1 032100Z 15006KT 39/16 A2997 RMK A01 T03870159  RH  026%=      5-min Rain = 0
KES1 032101Z 13007KT 39/16 A2997 RMK A01 T03910158  RH  026%=      5-min Rain = 0
KES1 032102Z 10006KT 39/16 A2997 RMK A01 T03920161  RH  026%=      5-min Rain = 0
KES1 032103Z 10004KT 39/16 A2997 RMK A01 T03920162  RH  026%=      5-min Rain = 0
KES1 032104Z 11007KT 39/16 A2997 RMK A01 T03940164  RH  026%=      5-min Rain = 0
KES1 032105Z 11009KT 40/16 A2997 RMK A01 T03950161  RH  025%=      5-min Rain = 0
KES1 032106Z 11009KT 39/16 A2997 RMK A01 T03900156  RH  025%=      5-min Rain = 0
KES1 032107Z 13010KT 39/16 A2997 RMK A01 T03860158  RH  026%=      5-min Rain = 0
KES1 032108Z 13010KT 39/16 A2997 RMK A01 T03870158  RH  026%=      5-min Rain = 0
KES1 032109Z 13007KT 39/16 A2997 RMK A01 T03880157  RH  026%=      5-min Rain = 0
KES1 032110Z 12007KT 39/16 A2997 RMK A01 T03880155  RH  025%=      5-min Rain = 0
KES1 032111Z 11009KT 39/16 A2997 RMK A01 T03860157  RH  026%=      5-min Rain = 0
KES1 032112Z 10007KT 39/16 A2997 RMK A01 T03850159  RH  026%=      5-min Rain = 0
KES1 032113Z 10007KT 39/16 A2997 RMK A01 T03860161  RH  027%=      5-min Rain = 0
KES1 032114Z 10009KT 39/16 A2997 RMK A01 T03890163  RH  027%=      5-min Rain = 0
KES1 032115Z 12008KT 39/16 A2997 RMK A01 T03910160  RH  026%=      5-min Rain = 0
KES1 032116Z 10006KT 39/15 A2997 RMK A01 T03870153  RH  025%=      5-min Rain = 0
KES1 032117Z 09005KT 38/16 A2997 RMK A01 T03830157  RH  027%=      5-min Rain = 0
KES1 032118Z 08009G14KT 39/16 A2996 RMK A01 T03850162  RH  027%=      5-min Rain = 0
KES1 032119Z 06009KT 39/16 A2996 RMK A01 T03860162  RH  027%=      5-min Rain = 0
KES1 032120Z 07010KT 39/16 A2996 RMK A01 T03850160  RH  027%=      5-min Rain = 0
KES1 032121Z 09009KT 38/16 A2996 RMK A01 T03830159  RH  027%=      5-min Rain = 0
KES1 032122Z 08008KT 38/16 A2997 RMK A01 T03810156  RH  027%=      5-min Rain = 0
KES1 032123Z 09006KT 38/15 A2997 RMK A01 T03800153  RH  026%=      5-min Rain = 0
KES1 032124Z 08003KT 38/15 A2997 RMK A01 T03770150  RH  026%=      5-min Rain = 0
KES1 032125Z 09002KT 38/15 A2996 RMK A01 T03750151  RH  027%=      5-min Rain = 0
KES1 032126Z 15003KT 38/15 A2996 RMK A01 T03750152  RH  027%=      5-min Rain = 0
KES1 032127Z 18002KT 38/15 A2996 RMK A01 T03760151  RH  026%=      5-min Rain = 0
KES1 032128Z 19001KT 38/15 A2996 RMK A01 T03750152  RH  027%=      5-min Rain = 0
KES1 032129Z 07003KT 37/16 A2996 RMK A01 T03740155  RH  027%=      5-min Rain = 0
KES1 032130Z 11008KT 38/16 A2996 RMK A01 T03750157  RH  028%=      5-min Rain = 0
KES1 032131Z 13008KT 38/16 A2996 RMK A01 T03760156  RH  027%=      5-min Rain = 0
KES1 032132Z 10006KT 38/16 A2996 RMK A01 T03770155  RH  027%=      5-min Rain = 0
KES1 032133Z 10008KT 38/16 A2996 RMK A01 T03770158  RH  027%=      5-min Rain = 0
KES1 032134Z 08008KT 38/16 A2996 RMK A01 T03800157  RH  027%=      5-min Rain = 0
KES1 032135Z 07009KT 38/16 A2996 RMK A01 T03800157  RH  027%=      5-min Rain = 0
KES1 032136Z 08008KT 38/16 A2996 RMK A01 T03810157  RH  027%=      5-min Rain = 0
KES1 032137Z 10010KT 38/16 A2995 RMK A01 T03810156  RH  027%=      5-min Rain = 0
KES1 032138Z 09007KT 38/16 A2995 RMK A01 T03800158  RH  027%=      5-min Rain = 0
KES1 032139Z 12008KT 38/16 A2995 RMK A01 T03810159  RH  027%=      5-min Rain = 0
KES1 032140Z 13008KT 38/15 A2995 RMK A01 T03790154  RH  027%=      5-min Rain = 0
KES1 032141Z 12006KT 37/15 A2995 RMK A01 T03740153  RH  027%=      5-min Rain = 0
KES1 032142Z 10006G13KT 37/16 A2995 RMK A01 T03720156  RH  028%=      5-min Rain = 0
KES1 032143Z 09011KT 37/16 A2995 RMK A01 T03730156  RH  028%=      5-min Rain = 0
KES1 032144Z 10009KT 37/15 A2995 RMK A01 T03720153  RH  027%=      5-min Rain = 0
KES1 032145Z 10007KT 37/15 A2995 RMK A01 T03690153  RH  028%=      5-min Rain = 0
KES1 032146Z 08008KT 37/16 A2995 RMK A01 T03680155  RH  028%=      5-min Rain = 0
KES1 032147Z 08007KT 37/16 A2995 RMK A01 T03690155  RH  028%=      5-min Rain = 0
KES1 032148Z 10006KT 37/16 A2995 RMK A01 T03700156  RH  028%=      5-min Rain = 0
KES1 032149Z 11009KT 37/15 A2995 RMK A01 T03700154  RH  028%=      5-min Rain = 0
KES1 032150Z 10010KT 37/15 A2995 RMK A01 T03690153  RH  028%=      5-min Rain = 0
KES1 032151Z 09008KT 37/15 A2995 RMK A01 T03690152  RH  028%=      5-min Rain = 0
KES1 032152Z 13006KT 37/15 A2995 RMK A01 T03690153  RH  028%=      5-min Rain = 0
KES1 032153Z 13003KT 37/15 A2995 RMK A01 T03710154  RH  028%=      5-min Rain = 0
KES1 032154Z 14004KT 37/16 A2995 RMK A01 T03740156  RH  028%=      5-min Rain = 0
KES1 032155Z 16004KT 38/15 A2995 RMK A01 T03760153  RH  027%=      5-min Rain = 0
KES1 032156Z 13003KT 38/15 A2995 RMK A01 T03770154  RH  027%=      5-min Rain = 0
KES1 032157Z 11004KT 38/16 A2994 RMK A01 T03780156  RH  027%=      5-min Rain = 0
KES1 032158Z 11005KT 38/16 A2995 RMK A01 T03780157  RH  027%=      5-min Rain = 0
KES1 032159Z 12007KT 38/16 A2995 RMK A01 T03780157  RH  027%=      5-min Rain = 0
KES1 032200Z 11009KT 38/16 A2995 RMK A01 T03760156  RH  027%=      5-min Rain = 0
KES1 032201Z 12012KT 37/16 A2995 RMK A01 T03730157  RH  028%=      5-min Rain = 0
KES1 032202Z 12011KT 37/16 A2995 RMK A01 T03700156  RH  028%=      5-min Rain = 0
KES1 032203Z 11009KT 37/16 A2995 RMK A01 T03690157  RH  028%=      5-min Rain = 0
KES1 032204Z 12011KT 37/16 A2995 RMK A01 T03690158  RH  029%=      5-min Rain = 0
KES1 032205Z 13008KT 37/16 A2995 RMK A01 T03690158  RH  029%=      5-min Rain = 0
KES1 032206Z 13011KT 37/16 A2995 RMK A01 T03690158  RH  029%=      5-min Rain = 0
KES1 032207Z 13012KT 37/16 A2995 RMK A01 T03680157  RH  029%=      5-min Rain = 0
KES1 032208Z 11011KT 37/16 A2995 RMK A01 T03670157  RH  029%=      5-min Rain = 0
KES1 032209Z 11010KT 37/16 A2995 RMK A01 T03660157  RH  029%=      5-min Rain = 0
KES1 032210Z 12008KT 37/16 A2995 RMK A01 T03650157  RH  029%=      5-min Rain = 0
KES1 032211Z 13009KT 37/16 A2995 RMK A01 T03650158  RH  029%=      5-min Rain = 0
KES1 032212Z 12009KT 37/16 A2995 RMK A01 T03650159  RH  029%=      5-min Rain = 0
KES1 032213Z 12009KT 37/16 A2995 RMK A01 T03650157  RH  029%=      5-min Rain = 0
KES1 032214Z 13007KT 37/16 A2995 RMK A01 T03650157  RH  029%=      5-min Rain = 0
KES1 032215Z 13008KT 37/16 A2995 RMK A01 T03660157  RH  029%=      5-min Rain = 0
KES1 032216Z 11009KT 37/16 A2995 RMK A01 T03650156  RH  029%=      5-min Rain = 0
KES1 032217Z 12009KT 37/16 A2995 RMK A01 T03650157  RH  029%=      5-min Rain = 0
KES1 032218Z 11009KT 37/16 A2995 RMK A01 T03650156  RH  029%=      5-min Rain = 0
KES1 032219Z 10009KT 37/16 A2995 RMK A01 T03650156  RH  029%=      5-min Rain = 0
KES1 032220Z 11010KT 36/16 A2995 RMK A01 T03640157  RH  029%=      5-min Rain = 0
KES1 032221Z 10008KT 36/16 A2995 RMK A01 T03640155  RH  029%=      5-min Rain = 0
KES1 032222Z 10005KT 36/16 A2994 RMK A01 T03640155  RH  029%=      5-min Rain = 0
KES1 032223Z 09004KT 36/15 A2994 RMK A01 T03640154  RH  029%=      5-min Rain = 0
KES1 032224Z 12008KT 36/16 A2995 RMK A01 T03640156  RH  029%=      5-min Rain = 0
KES1 032225Z 13008KT 36/15 A2995 RMK A01 T03640154  RH  029%=      5-min Rain = 0
KES1 032226Z 13008KT 37/16 A2995 RMK A01 T03650155  RH  029%=      5-min Rain = 0
KES1 032227Z 15011KT 37/15 A2995 RMK A01 T03650154  RH  029%=      5-min Rain = 0
KES1 032228Z 15008KT 37/15 A2995 RMK A01 T03650153  RH  028%=      5-min Rain = 0
KES1 032229Z 15008KT 37/16 A2995 RMK A01 T03660159  RH  029%=      5-min Rain = 0
KES1 032230Z 14013KT 37/16 A2995 RMK A01 T03670162  RH  030%=      5-min Rain = 0
KES1 032231Z 11011KT 37/16 A2995 RMK A01 T03680160  RH  029%=      5-min Rain = 0
KES1 032232Z 11009KT 36/16 A2994 RMK A01 T03640159  RH  030%=      5-min Rain = 0
KES1 032233Z 15011KT 36/16 A2994 RMK A01 T03620160  RH  030%=      5-min Rain = 0
KES1 032234Z 14009KT 36/16 A2994 RMK A01 T03630160  RH  030%=      5-min Rain = 0
KES1 032235Z 15011KT 36/16 A2994 RMK A01 T03640158  RH  030%=      5-min Rain = 0
KES1 032236Z 15011KT 36/16 A2994 RMK A01 T03640158  RH  029%=      5-min Rain = 0
KES1 032237Z 14009KT 36/16 A2994 RMK A01 T03640158  RH  029%=      5-min Rain = 0
KES1 032238Z 13008KT 36/16 A2994 RMK A01 T03640160  RH  030%=      5-min Rain = 0
KES1 032239Z 13009KT 36/16 A2994 RMK A01 T03640160  RH  030%=      5-min Rain = 0
KES1 032240Z 12010KT 37/16 A2994 RMK A01 T03660161  RH  030%=      5-min Rain = 0
KES1 032241Z 12010KT 37/16 A2994 RMK A01 T03650158  RH  029%=      5-min Rain = 0
KES1 032242Z 13008KT 37/16 A2994 RMK A01 T03650159  RH  030%=      5-min Rain = 0
KES1 032243Z 14009KT 36/16 A2994 RMK A01 T03640159  RH  030%=      5-min Rain = 0
KES1 032244Z 13008KT 37/16 A2994 RMK A01 T03650159  RH  030%=      5-min Rain = 0
KES1 032245Z 13008KT 37/16 A2994 RMK A01 T03650159  RH  030%=      5-min Rain = 0
KES1 032246Z 13009KT 37/16 A2994 RMK A01 T03650159  RH  030%=      5-min Rain = 0
KES1 032247Z 13011KT 36/16 A2994 RMK A01 T03640158  RH  029%=      5-min Rain = 0
KES1 032248Z 14010KT 36/16 A2994 RMK A01 T03640158  RH  030%=      5-min Rain = 0
KES1 032249Z 14010KT 36/16 A2994 RMK A01 T03630159  RH  030%=      5-min Rain = 0
KES1 032250Z 14010KT 36/16 A2994 RMK A01 T03620161  RH  030%=      5-min Rain = 0
KES1 032251Z 14010KT 36/16 A2994 RMK A01 T03610160  RH  030%=      5-min Rain = 0
KES1 032252Z 14011KT 36/16 A2994 RMK A01 T03610160  RH  030%=      5-min Rain = 0
KES1 032253Z 14010KT 36/16 A2994 RMK A01 T03610160  RH  030%=      5-min Rain = 0
KES1 032254Z 14010KT 36/16 A2994 RMK A01 T03610160  RH  030%=      5-min Rain = 0
KES1 032255Z 14010KT 36/16 A2994 RMK A01 T03610161  RH  031%=      5-min Rain = 0
KES1 032256Z 13011KT 36/16 A2994 RMK A01 T03600160  RH  030%=      5-min Rain = 0
KES1 032257Z 13009KT 36/16 A2994 RMK A01 T03600159  RH  030%=      5-min Rain = 0
KES1 032258Z 13009KT 36/16 A2994 RMK A01 T03600160  RH  031%=      5-min Rain = 0
KES1 032259Z 13008KT 36/16 A2994 RMK A01 T03600160  RH  031%=      5-min Rain = 0
KES1 032300Z 14009KT 36/16 A2994 RMK A01 T03610160  RH  030%=      5-min Rain = 0
KES1 032301Z 14009KT 36/16 A2994 RMK A01 T03610159  RH  030%=      5-min Rain = 0
KES1 032302Z 13010KT 36/16 A2994 RMK A01 T03620158  RH  030%=      5-min Rain = 0
KES1 032303Z 14008KT 36/16 A2994 RMK A01 T03620159  RH  030%=      5-min Rain = 0
KES1 032304Z 14009KT 36/16 A2994 RMK A01 T03620159  RH  030%=      5-min Rain = 0
KES1 032305Z 13010KT 36/16 A2994 RMK A01 T03620156  RH  029%=      5-min Rain = 0
KES1 032306Z 13009KT 36/16 A2994 RMK A01 T03620157  RH  030%=      5-min Rain = 0
KES1 032307Z 14008KT 36/16 A2994 RMK A01 T03620158  RH  030%=      5-min Rain = 0
KES1 032308Z 14007KT 36/16 A2994 RMK A01 T03610158  RH  030%=      5-min Rain = 0
KES1 032309Z 14008KT 36/16 A2994 RMK A01 T03620158  RH  030%=      5-min Rain = 0
KES1 032310Z 14008KT 36/16 A2994 RMK A01 T03620159  RH  030%=      5-min Rain = 0
KES1 032311Z 15006G11KT 36/16 A2994 RMK A01 T03610160  RH  030%=      5-min Rain = 0
KES1 032312Z 15008G13KT 36/16 A2994 RMK A01 T03620160  RH  030%=      5-min Rain = 0
KES1 032313Z 15012KT 36/16 A2994 RMK A01 T03610157  RH  030%=      5-min Rain = 0
KES1 032314Z 15010KT 36/16 A2994 RMK A01 T03600156  RH  030%=      5-min Rain = 0
KES1 032315Z 15011KT 36/16 A2994 RMK A01 T03590159  RH  030%=      5-min Rain = 0
KES1 032316Z 15010KT 36/16 A2994 RMK A01 T03580160  RH  031%=      5-min Rain = 0
KES1 032317Z 15009KT 36/16 A2994 RMK A01 T03570159  RH  031%=      5-min Rain = 0
KES1 032318Z 15009KT 36/16 A2994 RMK A01 T03560161  RH  031%=      5-min Rain = 0
KES1 032319Z 15010KT 36/16 A2993 RMK A01 T03560160  RH  031%=      5-min Rain = 0
KES1 032320Z 15010KT 36/16 A2993 RMK A01 T03560161  RH  031%=      5-min Rain = 0
KES1 032321Z 14010KT 36/16 A2993 RMK A01 T03560159  RH  031%=      5-min Rain = 0
KES1 032322Z 14011KT 36/16 A2993 RMK A01 T03570159  RH  031%=      5-min Rain = 0
KES1 032323Z 14011KT 36/16 A2993 RMK A01 T03570158  RH  031%=      5-min Rain = 0
KES1 032324Z 14010KT 36/16 A2993 RMK A01 T03600160  RH  031%=      5-min Rain = 0
KES1 032325Z 14011KT 36/16 A2993 RMK A01 T03620159  RH  030%=      5-min Rain = 0
KES1 032326Z 14009KT 36/16 A2994 RMK A01 T03620160  RH  030%=      5-min Rain = 0
KES1 032327Z 14008KT 36/16 A2994 RMK A01 T03630163  RH  031%=      5-min Rain = 0
KES1 032328Z 15010KT 37/16 A2993 RMK A01 T03650164  RH  031%=      5-min Rain = 0
KES1 032329Z 15010KT 37/16 A2993 RMK A01 T03650163  RH  030%=      5-min Rain = 0
KES1 032330Z 15011KT 37/16 A2993 RMK A01 T03650164  RH  031%=      5-min Rain = 0
KES1 032331Z 15013KT 36/16 A2993 RMK A01 T03640163  RH  030%=      5-min Rain = 0
KES1 032332Z 15012KT 36/16 A2993 RMK A01 T03630164  RH  031%=      5-min Rain = 0
KES1 032333Z 14013KT 36/16 A2993 RMK A01 T03620162  RH  031%=      5-min Rain = 0
KES1 032334Z 14011KT 36/16 A2993 RMK A01 T03620163  RH  031%=      5-min Rain = 0
KES1 032335Z 14011KT 36/16 A2993 RMK A01 T03610163  RH  031%=      5-min Rain = 0
KES1 032336Z 14007KT 36/16 A2993 RMK A01 T03610164  RH  031%=      5-min Rain = 0
KES1 032337Z 14010KT 36/16 A2993 RMK A01 T03610163  RH  031%=      5-min Rain = 0
KES1 032338Z 14009KT 36/16 A2993 RMK A01 T03610164  RH  031%=      5-min Rain = 0
KES1 032339Z 14008KT 36/17 A2993 RMK A01 T03610165  RH  031%=      5-min Rain = 0
KES1 032340Z 14009KT 36/17 A2993 RMK A01 T03610165  RH  031%=      5-min Rain = 0
KES1 032341Z 13010KT 36/16 A2993 RMK A01 T03610164  RH  031%=      5-min Rain = 0
KES1 032342Z 14010KT 36/16 A2993 RMK A01 T03610164  RH  031%=      5-min Rain = 0
KES1 032343Z 15010KT 36/16 A2993 RMK A01 T03600163  RH  031%=      5-min Rain = 0
KES1 032344Z 15007KT 36/16 A2993 RMK A01 T03600164  RH  031%=      5-min Rain = 0
KES1 032345Z 15009KT 36/16 A2993 RMK A01 T03600164  RH  031%=      5-min Rain = 0
KES1 032346Z 15010KT 36/16 A2993 RMK A01 T03610163  RH  031%=      5-min Rain = 0
KES1 032347Z 15012KT 36/16 A2993 RMK A01 T03610162  RH  031%=      5-min Rain = 0
KES1 032348Z 15013KT 36/16 A2993 RMK A01 T03610160  RH  030%=      5-min Rain = 0
KES1 032349Z 15013KT 36/16 A2993 RMK A01 T03610160  RH  030%=      5-min Rain = 0
KES1 032350Z 15011KT 36/16 A2993 RMK A01 T03610160  RH  030%=      5-min Rain = 0
KES1 032351Z 15011KT 36/16 A2993 RMK A01 T03610158  RH  030%=      5-min Rain = 0
KES1 032352Z 14012KT 36/16 A2993 RMK A01 T03610158  RH  030%=      5-min Rain = 0
KES1 032353Z 14012KT 36/16 A2993 RMK A01 T03610158  RH  030%=      5-min Rain = 0
KES1 032354Z 14013KT 36/16 A2993 RMK A01 T03610158  RH  030%=      5-min Rain = 0
KES1 032355Z 14012KT 36/16 A2993 RMK A01 T03610156  RH  030%=      5-min Rain = 0
KES1 032356Z 14009G15KT 36/16 A2993 RMK A01 T03600159  RH  030%=      5-min Rain = 0
KES1 032357Z 14014KT 36/16 A2993 RMK A01 T03610156  RH  030%=      5-min Rain = 0
KES1 032358Z 13013KT 36/16 A2993 RMK A01 T03610156  RH  030%=      5-min Rain = 0
KES1 032359Z 13010KT 36/16 A2993 RMK A01 T03590157  RH  030%=      5-min Rain = 0
KES1 040000Z 13009KT 36/16 A2993 RMK A01 T03590158  RH  030%=      5-min Rain = 0
KES1 040001Z 14010KT 36/16 A2993 RMK A01 T03600159  RH  030%=      5-min Rain = 0
KES1 040002Z 14013KT 36/16 A2993 RMK A01 T03610158  RH  030%=      5-min Rain = 0
KES1 040003Z 14013KT 36/16 A2993 RMK A01 T03610157  RH  030%=      5-min Rain = 0
KES1 040004Z 14011KT 36/16 A2993 RMK A01 T03610158  RH  030%=      5-min Rain = 0
KES1 040005Z 13008KT 36/16 A2993 RMK A01 T03610160  RH  031%=      5-min Rain = 0
KES1 040006Z 13007KT 36/16 A2993 RMK A01 T03610162  RH  031%=      5-min Rain = 0
KES1 040007Z 13009KT 36/16 A2993 RMK A01 T03610162  RH  031%=      5-min Rain = 0
KES1 040008Z 14010KT 36/16 A2993 RMK A01 T03620161  RH  030%=      5-min Rain = 0
KES1 040009Z 14009KT 36/16 A2993 RMK A01 T03610161  RH  031%=      5-min Rain = 0
KES1 040010Z 13008KT 36/16 A2993 RMK A01 T03610162  RH  031%=      5-min Rain = 0
KES1 040011Z 13010KT 36/16 A2993 RMK A01 T03610162  RH  031%=      5-min Rain = 0
KES1 040012Z 14008KT 36/16 A2993 RMK A01 T03610160  RH  030%=      5-min Rain = 0
KES1 040013Z 15008KT 36/16 A2993 RMK A01 T03600161  RH  031%=      5-min Rain = 0
KES1 040014Z 15009KT 36/16 A2993 RMK A01 T03600161  RH  031%=      5-min Rain = 0
KES1 040015Z 14008KT 36/16 A2993 RMK A01 T03600161  RH  031%=      5-min Rain = 0
KES1 040016Z 14013KT 36/16 A2993 RMK A01 T03600160  RH  031%=      5-min Rain = 0
KES1 040017Z 14010KT 36/16 A2993 RMK A01 T03600160  RH  031%=      5-min Rain = 0
KES1 040018Z 15010KT 36/16 A2993 RMK A01 T03590160  RH  031%=      5-min Rain = 0
KES1 040019Z 15011KT 36/16 A2993 RMK A01 T03590161  RH  031%=      5-min Rain = 0
KES1 040020Z 14009KT 36/16 A2993 RMK A01 T03590160  RH  031%=      5-min Rain = 0
KES1 040021Z 15010KT 36/16 A2993 RMK A01 T03590161  RH  031%=      5-min Rain = 0
KES1 040022Z 15008KT 36/16 A2993 RMK A01 T03590162  RH  031%=      5-min Rain = 0
KES1 040023Z 14008KT 36/16 A2993 RMK A01 T03590162  RH  031%=      5-min Rain = 0
KES1 040024Z 13009KT 36/16 A2993 RMK A01 T03600162  RH  031%=      5-min Rain = 0
KES1 040025Z 13011KT 36/16 A2993 RMK A01 T03590160  RH  031%=      5-min Rain = 0
KES1 040026Z 14010KT 36/16 A2993 RMK A01 T03590160  RH  031%=      5-min Rain = 0
KES1 040027Z 14010KT 36/16 A2993 RMK A01 T03590159  RH  031%=      5-min Rain = 0
KES1 040028Z 15010KT 36/16 A2993 RMK A01 T03590160  RH  031%=      5-min Rain = 0
KES1 040029Z 14009KT 36/16 A2993 RMK A01 T03590159  RH  031%=      5-min Rain = 0
KES1 040030Z 14010KT 36/16 A2993 RMK A01 T03590160  RH  031%=      5-min Rain = 0
KES1 040031Z 14010KT 36/16 A2993 RMK A01 T03590160  RH  031%=      5-min Rain = 0
KES1 040032Z 14009KT 36/16 A2993 RMK A01 T03590158  RH  030%=      5-min Rain = 0
KES1 040033Z 14010KT 36/16 A2993 RMK A01 T03590159  RH  031%=      5-min Rain = 0
KES1 040034Z 14009KT 36/16 A2993 RMK A01 T03580158  RH  030%=      5-min Rain = 0
KES1 040035Z 14008KT 36/16 A2993 RMK A01 T03580159  RH  031%=      5-min Rain = 0
KES1 040036Z 14010KT 36/16 A2993 RMK A01 T03580159  RH  031%=      5-min Rain = 0
KES1 040037Z 15009KT 36/16 A2993 RMK A01 T03590159  RH  031%=      5-min Rain = 0
KES1 040038Z 15010KT 36/16 A2993 RMK A01 T03580159  RH  031%=      5-min Rain = 0
KES1 040039Z 15009KT 36/16 A2993 RMK A01 T03580160  RH  031%=      5-min Rain = 0
KES1 040040Z 14008KT 36/16 A2993 RMK A01 T03570160  RH  031%=      5-min Rain = 0
KES1 040041Z 13008KT 36/16 A2993 RMK A01 T03570160  RH  031%=      5-min Rain = 0
KES1 040042Z 14010KT 36/16 A2993 RMK A01 T03570159  RH  031%=      5-min Rain = 0
KES1 040043Z 14009KT 36/16 A2993 RMK A01 T03570159  RH  031%=      5-min Rain = 0
KES1 040044Z 13009KT 36/16 A2993 RMK A01 T03570159  RH  031%=      5-min Rain = 0
KES1 040045Z 14007KT 36/16 A2993 RMK A01 T03570159  RH  031%=      5-min Rain = 0
KES1 040046Z 14007KT 36/16 A2993 RMK A01 T03560160  RH  031%=      5-min Rain = 0
KES1 040047Z 15009KT 36/16 A2993 RMK A01 T03560161  RH  031%=      5-min Rain = 0
KES1 040048Z 15008KT 36/16 A2993 RMK A01 T03560160  RH  031%=      5-min Rain = 0
KES1 040049Z 15007KT 36/16 A2993 RMK A01 T03550161  RH  031%=      5-min Rain = 0
KES1 040050Z 14007KT 36/16 A2993 RMK A01 T03550161  RH  032%=      5-min Rain = 0
KES1 040051Z 15008KT 36/16 A2993 RMK A01 T03550161  RH  032%=      5-min Rain = 0
KES1 040052Z 14008KT 36/16 A2994 RMK A01 T03550159  RH  031%=      5-min Rain = 0
KES1 040053Z 14010KT 35/16 A2994 RMK A01 T03540159  RH  031%=      5-min Rain = 0
KES1 040054Z 15009KT 35/16 A2994 RMK A01 T03540158  RH  031%=      5-min Rain = 0
KES1 040055Z 14009KT 35/16 A2994 RMK A01 T03540160  RH  032%=      5-min Rain = 0
KES1 040056Z 15011KT 35/16 A2994 RMK A01 T03530161  RH  032%=      5-min Rain = 0
KES1 040057Z 14011KT 35/16 A2994 RMK A01 T03520162  RH  032%=      5-min Rain = 0
KES1 040058Z 14010KT 35/16 A2994 RMK A01 T03520163  RH  033%=      5-min Rain = 0
KES1 040059Z 13009KT 35/16 A2994 RMK A01 T03510163  RH  033%=      5-min Rain = 0
KES1 040100Z 14008KT 35/16 A2994 RMK A01 T03510164  RH  033%=      5-min Rain = 0
KES1 040101Z 15007KT 35/16 A2994 RMK A01 T03500164  RH  033%=      5-min Rain = 0
KES1 040102Z 14009KT 35/16 A2994 RMK A01 T03490163  RH  033%=      5-min Rain = 0
KES1 040103Z 14009KT 35/16 A2994 RMK A01 T03490164  RH  033%=      5-min Rain = 0
KES1 040104Z 14007KT 35/16 A2994 RMK A01 T03490163  RH  033%=      5-min Rain = 0
KES1 040105Z 15007KT 35/16 A2994 RMK A01 T03490164  RH  033%=      5-min Rain = 0
KES1 040106Z 14006KT 35/16 A2994 RMK A01 T03480164  RH  034%=      5-min Rain = 0
KES1 040107Z 15007KT 35/17 A2994 RMK A01 T03480165  RH  034%=      5-min Rain = 0
KES1 040108Z 15006KT 35/17 A2994 RMK A01 T03470165  RH  034%=      5-min Rain = 0
KES1 040109Z 15006KT 35/17 A2994 RMK A01 T03470165  RH  034%=      5-min Rain = 0
KES1 040110Z 15007KT 35/17 A2994 RMK A01 T03470165  RH  034%=      5-min Rain = 0
KES1 040111Z 15006KT 35/17 A2994 RMK A01 T03460166  RH  034%=      5-min Rain = 0
KES1 040112Z 15007KT 35/17 A2994 RMK A01 T03460166  RH  034%=      5-min Rain = 0
KES1 040113Z 14007KT 35/17 A2994 RMK A01 T03450167  RH  035%=      5-min Rain = 0
KES1 040114Z 15008KT 34/17 A2994 RMK A01 T03440167  RH  035%=      5-min Rain = 0
KES1 040115Z 15008KT 34/17 A2994 RMK A01 T03440167  RH  035%=      5-min Rain = 0
KES1 040116Z 15009KT 34/17 A2994 RMK A01 T03430167  RH  035%=      5-min Rain = 0
KES1 040117Z 15008KT 34/17 A2994 RMK A01 T03420167  RH  035%=      5-min Rain = 0
KES1 040118Z 15008KT 34/17 A2994 RMK A01 T03420167  RH  035%=      5-min Rain = 0
KES1 040119Z 15007KT 34/17 A2994 RMK A01 T03420168  RH  036%=      5-min Rain = 0
KES1 040120Z 15007KT 34/17 A2994 RMK A01 T03410168  RH  036%=      5-min Rain = 0
KES1 040121Z 15007KT 34/17 A2994 RMK A01 T03400168  RH  036%=      5-min Rain = 0
KES1 040122Z 15007KT 34/17 A2994 RMK A01 T03400168  RH  036%=      5-min Rain = 0
KES1 040123Z 15006KT 34/17 A2994 RMK A01 T03390169  RH  036%=      5-min Rain = 0
KES1 040124Z 15007KT 34/17 A2994 RMK A01 T03380169  RH  036%=      5-min Rain = 0
KES1 040125Z 15007KT 34/17 A2994 RMK A01 T03380169  RH  037%=      5-min Rain = 0
KES1 040126Z 15007KT 34/17 A2994 RMK A01 T03370169  RH  037%=      5-min Rain = 0
KES1 040127Z 15006KT 34/17 A2994 RMK A01 T03370169  RH  037%=      5-min Rain = 0
KES1 040128Z 15006KT 34/17 A2994 RMK A01 T03360169  RH  037%=      5-min Rain = 0
KES1 040129Z 15006KT 34/17 A2994 RMK A01 T03350169  RH  037%=      5-min Rain = 0
KES1 040130Z 15006KT 33/17 A2994 RMK A01 T03340169  RH  037%=      5-min Rain = 0
KES1 040131Z 15006KT 33/17 A2994 RMK A01 T03330169  RH  038%=      5-min Rain = 0
KES1 040132Z 15007KT 33/17 A2994 RMK A01 T03320169  RH  038%=      5-min Rain = 0
KES1 040133Z 15007KT 33/17 A2994 RMK A01 T03320170  RH  038%=      5-min Rain = 0
KES1 040134Z 15006KT 33/17 A2994 RMK A01 T03310169  RH  038%=      5-min Rain = 0
KES1 040135Z 15006KT 33/17 A2994 RMK A01 T03310169  RH  038%=      5-min Rain = 0
KES1 040136Z 15006KT 33/17 A2994 RMK A01 T03300170  RH  038%=      5-min Rain = 0
KES1 040137Z 15007KT 33/17 A2994 RMK A01 T03290169  RH  039%=      5-min Rain = 0
KES1 040138Z 14006KT 33/17 A2994 RMK A01 T03290169  RH  039%=      5-min Rain = 0
KES1 040139Z 14005KT 33/17 A2994 RMK A01 T03280170  RH  039%=      5-min Rain = 0
KES1 040140Z 15006KT 33/17 A2994 RMK A01 T03270170  RH  039%=      5-min Rain = 0
KES1 040141Z 15006KT 33/17 A2994 RMK A01 T03270170  RH  039%=      5-min Rain = 0
KES1 040142Z 14005KT 33/17 A2994 RMK A01 T03260170  RH  039%=      5-min Rain = 0
KES1 040143Z 14006KT 33/17 A2994 RMK A01 T03260170  RH  039%=      5-min Rain = 0
KES1 040144Z 14006KT 33/17 A2994 RMK A01 T03260170  RH  039%=      5-min Rain = 0
KES1 040145Z 14006KT 33/17 A2994 RMK A01 T03250170  RH  039%=      5-min Rain = 0
KES1 040146Z 14005KT 33/17 A2994 RMK A01 T03250170  RH  039%=      5-min Rain = 0
KES1 040147Z 14006KT 33/17 A2994 RMK A01 T03250170  RH  040%=      5-min Rain = 0
KES1 040148Z 14005KT 32/17 A2994 RMK A01 T03240170  RH  040%=      5-min Rain = 0
KES1 040149Z 14005KT 33/17 A2995 RMK A01 T03250170  RH  040%=      5-min Rain = 0
KES1 040150Z 14006KT 33/17 A2995 RMK A01 T03250170  RH  040%=      5-min Rain = 0
KES1 040151Z 13006KT 33/17 A2995 RMK A01 T03250170  RH  040%=      5-min Rain = 0
KES1 040152Z 13006KT 32/17 A2995 RMK A01 T03240170  RH  040%=      5-min Rain = 0
KES1 040153Z 13006KT 32/17 A2995 RMK A01 T03240169  RH  040%=      5-min Rain = 0
KES1 040154Z 14007KT 32/17 A2995 RMK A01 T03240170  RH  040%=      5-min Rain = 0
KES1 040155Z 14006KT 32/17 A2995 RMK A01 T03240169  RH  040%=      5-min Rain = 0
KES1 040156Z 14007KT 32/17 A2995 RMK A01 T03240169  RH  040%=      5-min Rain = 0
KES1 040157Z 14007KT 32/17 A2995 RMK A01 T03240169  RH  040%=      5-min Rain = 0
KES1 040158Z 14006KT 32/17 A2995 RMK A01 T03230169  RH  040%=      5-min Rain = 0
KES1 040159Z 14006KT 32/17 A2995 RMK A01 T03230170  RH  040%=      5-min Rain = 0
KES1 040200Z 14007KT 32/17 A2995 RMK A01 T03220169  RH  040%=      5-min Rain = 0
KES1 040201Z 14007KT 32/17 A2995 RMK A01 T03220169  RH  040%=      5-min Rain = 0
KES1 040202Z 14006KT 32/17 A2995 RMK A01 T03210169  RH  040%=      5-min Rain = 0
KES1 040203Z 14006KT 32/17 A2995 RMK A01 T03210169  RH  040%=      5-min Rain = 0
KES1 040204Z 14006KT 32/17 A2995 RMK A01 T03200169  RH  040%=      5-min Rain = 0
KES1 040205Z 14007KT 32/17 A2995 RMK A01 T03200169  RH  041%=      5-min Rain = 0
KES1 040206Z 14006KT 32/17 A2995 RMK A01 T03200170  RH  041%=      5-min Rain = 0
KES1 040207Z 14006KT 32/17 A2995 RMK A01 T03200169  RH  041%=      5-min Rain = 0
KES1 040208Z 14006KT 32/17 A2995 RMK A01 T03190169  RH  041%=      5-min Rain = 0
KES1 040209Z 14005KT 32/17 A2995 RMK A01 T03190170  RH  041%=      5-min Rain = 0
KES1 040210Z 14006KT 32/17 A2995 RMK A01 T03190170  RH  041%=      5-min Rain = 0
KES1 040211Z 14006KT 32/17 A2995 RMK A01 T03180170  RH  041%=      5-min Rain = 0
KES1 040212Z 14007KT 32/17 A2995 RMK A01 T03180170  RH  041%=      5-min Rain = 0
KES1 040213Z 14006KT 32/17 A2995 RMK A01 T03170169  RH  041%=      5-min Rain = 0
KES1 040214Z 14006KT 32/17 A2995 RMK A01 T03170169  RH  041%=      5-min Rain = 0
KES1 040215Z 14007KT 32/17 A2995 RMK A01 T03170169  RH  041%=      5-min Rain = 0
KES1 040216Z 14006KT 32/17 A2995 RMK A01 T03170169  RH  041%=      5-min Rain = 0
KES1 040217Z 13007KT 32/17 A2995 RMK A01 T03170169  RH  041%=      5-min Rain = 0
KES1 040218Z 13007KT 32/17 A2995 RMK A01 T03170170  RH  041%=      5-min Rain = 0
KES1 040219Z 13006KT 32/17 A2995 RMK A01 T03170169  RH  041%=      5-min Rain = 0
KES1 040220Z 13007KT 32/17 A2996 RMK A01 T03160169  RH  041%=      5-min Rain = 0
KES1 040221Z 13007KT 32/17 A2996 RMK A01 T03160169  RH  041%=      5-min Rain = 0
KES1 040222Z 13007KT 32/17 A2996 RMK A01 T03160170  RH  041%=      5-min Rain = 0
KES1 040223Z 13007KT 32/17 A2996 RMK A01 T03160170  RH  041%=      5-min Rain = 0
KES1 040224Z 14007KT 32/17 A2996 RMK A01 T03160170  RH  042%=      5-min Rain = 0
KES1 040225Z 13007KT 32/17 A2996 RMK A01 T03160169  RH  042%=      5-min Rain = 0
KES1 040226Z 13007KT 32/17 A2996 RMK A01 T03160170  RH  042%=      5-min Rain = 0
KES1 040227Z 14007KT 32/17 A2996 RMK A01 T03160170  RH  042%=      5-min Rain = 0
KES1 040228Z 13007KT 32/17 A2996 RMK A01 T03160170  RH  042%=      5-min Rain = 0
KES1 040229Z 14007KT 32/17 A2996 RMK A01 T03150170  RH  042%=      5-min Rain = 0
KES1 040230Z 14007KT 32/17 A2996 RMK A01 T03150170  RH  042%=      5-min Rain = 0
KES1 040231Z 14007KT 32/17 A2996 RMK A01 T03150170  RH  042%=      5-min Rain = 0
KES1 040232Z 14007KT 32/17 A2996 RMK A01 T03150170  RH  042%=      5-min Rain = 0
KES1 040233Z 14006KT 32/17 A2996 RMK A01 T03150170  RH  042%=      5-min Rain = 0
KES1 040234Z 14007KT 31/17 A2996 RMK A01 T03140170  RH  042%=      5-min Rain = 0
KES1 040235Z 13006KT 31/17 A2996 RMK A01 T03140170  RH  042%=      5-min Rain = 0
KES1 040236Z 14007KT 31/17 A2996 RMK A01 T03140170  RH  042%=      5-min Rain = 0
KES1 040237Z 13006KT 31/17 A2996 RMK A01 T03130170  RH  042%=      5-min Rain = 0
KES1 040238Z 13007KT 31/17 A2996 RMK A01 T03140170  RH  042%=      5-min Rain = 0
KES1 040239Z 13007KT 31/17 A2996 RMK A01 T03140170  RH  042%=      5-min Rain = 0
KES1 040240Z 13007KT 31/17 A2996 RMK A01 T03140170  RH  042%=      5-min Rain = 0
KES1 040241Z 13007KT 31/17 A2996 RMK A01 T03130170  RH  042%=      5-min Rain = 0
KES1 040242Z 13007KT 31/17 A2996 RMK A01 T03130170  RH  042%=      5-min Rain = 0
KES1 040243Z 13006KT 31/17 A2996 RMK A01 T03130170  RH  042%=      5-min Rain = 0
KES1 040244Z 13006KT 31/17 A2996 RMK A01 T03130170  RH  042%=      5-min Rain = 0
KES1 040245Z 13006KT 31/17 A2996 RMK A01 T03130170  RH  043%=      5-min Rain = 0
KES1 040246Z 13007KT 31/17 A2996 RMK A01 T03120171  RH  043%=      5-min Rain = 0
KES1 040247Z 13007KT 31/17 A2997 RMK A01 T03120170  RH  043%=      5-min Rain = 0
KES1 040248Z 14007KT 31/17 A2997 RMK A01 T03120170  RH  043%=      5-min Rain = 0
KES1 040249Z 13006KT 31/17 A2997 RMK A01 T03120170  RH  043%=      5-min Rain = 0
KES1 040250Z 13006KT 31/17 A2997 RMK A01 T03120171  RH  043%=      5-min Rain = 0
KES1 040251Z 13007KT 31/17 A2997 RMK A01 T03110171  RH  043%=      5-min Rain = 0
KES1 040252Z 13007KT 31/17 A2997 RMK A01 T03100171  RH  043%=      5-min Rain = 0
KES1 040253Z 13007KT 31/17 A2997 RMK A01 T03100171  RH  043%=      5-min Rain = 0
KES1 040254Z 13007KT 31/17 A2997 RMK A01 T03100171  RH  043%=      5-min Rain = 0
KES1 040255Z 13006KT 31/17 A2997 RMK A01 T03100171  RH  043%=      5-min Rain = 0
KES1 040256Z 13007KT 31/17 A2997 RMK A01 T03100171  RH  043%=      5-min Rain = 0
KES1 040257Z 13007KT 31/17 A2997 RMK A01 T03100171  RH  043%=      5-min Rain = 0
KES1 040258Z 14006KT 31/17 A2997 RMK A01 T03090171  RH  044%=      5-min Rain = 0
KES1 040259Z 14006KT 31/17 A2997 RMK A01 T03090171  RH  044%=      5-min Rain = 0
KES1 040300Z 14006KT 31/17 A2997 RMK A01 T03080171  RH  044%=      5-min Rain = 0
KES1 040301Z 14006KT 31/17 A2997 RMK A01 T03080171  RH  044%=      5-min Rain = 0
KES1 040302Z 14007KT 31/17 A2997 RMK A01 T03080171  RH  044%=      5-min Rain = 0
KES1 040303Z 14006KT 31/17 A2997 RMK A01 T03080171  RH  044%=      5-min Rain = 0
KES1 040304Z 14007KT 31/17 A2998 RMK A01 T03080172  RH  044%=      5-min Rain = 0
KES1 040305Z 14008KT 31/17 A2998 RMK A01 T03070171  RH  044%=      5-min Rain = 0
KES1 040306Z 14007KT 31/17 A2998 RMK A01 T03070172  RH  044%=      5-min Rain = 0
KES1 040307Z 14007KT 31/17 A2998 RMK A01 T03070172  RH  044%=      5-min Rain = 0
KES1 040308Z 14008KT 31/17 A2998 RMK A01 T03070171  RH  044%=      5-min Rain = 0
KES1 040309Z 14007KT 31/17 A2998 RMK A01 T03070171  RH  044%=      5-min Rain = 0
KES1 040310Z 14007KT 31/17 A2998 RMK A01 T03070171  RH  044%=      5-min Rain = 0
KES1 040311Z 14007KT 31/17 A2998 RMK A01 T03070171  RH  044%=      5-min Rain = 0
KES1 040312Z 14006KT 31/17 A2998 RMK A01 T03070171  RH  044%=      5-min Rain = 0
KES1 040313Z 13007KT 31/17 A2998 RMK A01 T03080171  RH  044%=      5-min Rain = 0
KES1 040314Z 14008KT 31/17 A2998 RMK A01 T03080172  RH  044%=      5-min Rain = 0
KES1 040315Z 13007KT 31/17 A2998 RMK A01 T03080172  RH  044%=      5-min Rain = 0
KES1 040316Z 14008KT 31/17 A2998 RMK A01 T03080172  RH  044%=      5-min Rain = 0
KES1 040317Z 14007KT 31/17 A2998 RMK A01 T03080172  RH  044%=      5-min Rain = 0
KES1 040318Z 14006KT 31/17 A2998 RMK A01 T03070172  RH  044%=      5-min Rain = 0
KES1 040319Z 14006KT 31/17 A2998 RMK A01 T03070171  RH  044%=      5-min Rain = 0
KES1 040320Z 14008KT 31/17 A2998 RMK A01 T03070171  RH  044%=      5-min Rain = 0
KES1 040321Z 14007KT 31/17 A2998 RMK A01 T03070171  RH  044%=      5-min Rain = 0
KES1 040322Z 14006KT 31/17 A2998 RMK A01 T03070171  RH  044%=      5-min Rain = 0
KES1 040323Z 14007KT 31/17 A2998 RMK A01 T03070171  RH  044%=      5-min Rain = 0
KES1 040324Z 14006KT 31/17 A2998 RMK A01 T03070171  RH  044%=      5-min Rain = 0
KES1 040325Z 14006KT 31/17 A2998 RMK A01 T03070171  RH  044%=      5-min Rain = 0
KES1 040326Z 14005KT 31/17 A2998 RMK A01 T03070171  RH  044%=      5-min Rain = 0
KES1 040327Z 14007KT 31/17 A2998 RMK A01 T03060171  RH  044%=      5-min Rain = 0
KES1 040328Z 14007KT 31/17 A2998 RMK A01 T03060171  RH  044%=      5-min Rain = 0
KES1 040329Z 14007KT 31/17 A2999 RMK A01 T03060171  RH  044%=      5-min Rain = 0
KES1 040330Z 14006KT 31/17 A2999 RMK A01 T03060171  RH  044%=      5-min Rain = 0
KES1 040331Z 14006KT 31/17 A2999 RMK A01 T03060171  RH  044%=      5-min Rain = 0
KES1 040332Z 14006KT 31/17 A2999 RMK A01 T03050171  RH  045%=      5-min Rain = 0
KES1 040333Z 14007KT 31/17 A2999 RMK A01 T03050171  RH  045%=      5-min Rain = 0
KES1 040334Z 14006KT 31/17 A2999 RMK A01 T03050171  RH  045%=      5-min Rain = 0
KES1 040335Z 14008KT 31/17 A2999 RMK A01 T03050171  RH  045%=      5-min Rain = 0
KES1 040336Z 14006KT 31/17 A2999 RMK A01 T03050171  RH  045%=      5-min Rain = 0
KES1 040337Z 14007KT 31/17 A2999 RMK A01 T03050171  RH  045%=      5-min Rain = 0
KES1 040338Z 14008KT 31/17 A2999 RMK A01 T03050171  RH  045%=      5-min Rain = 0
KES1 040339Z 13007KT 31/17 A2999 RMK A01 T03050171  RH  045%=      5-min Rain = 0
KES1 040340Z 13007KT 31/17 A2999 RMK A01 T03050171  RH  045%=      5-min Rain = 0
KES1 040341Z 13007KT 31/17 A2999 RMK A01 T03050171  RH  045%=      5-min Rain = 0
KES1 040342Z 14007KT 31/17 A2999 RMK A01 T03050171  RH  045%=      5-min Rain = 0
KES1 040343Z 14007KT 31/17 A2999 RMK A01 T03050171  RH  045%=      5-min Rain = 0
KES1 040344Z 13007KT 31/17 A2999 RMK A01 T03050171  RH  045%=      5-min Rain = 0
KES1 040345Z 14007KT 31/17 A2999 RMK A01 T03050170  RH  045%=      5-min Rain = 0
KES1 040346Z 14008KT 31/17 A2999 RMK A01 T03050171  RH  045%=      5-min Rain = 0
KES1 040347Z 14007KT 31/17 A2999 RMK A01 T03050171  RH  045%=      5-min Rain = 0
KES1 040348Z 14007KT 30/17 A2999 RMK A01 T03040170  RH  045%=      5-min Rain = 0
KES1 040349Z 14006KT 30/17 A2999 RMK A01 T03040170  RH  045%=      5-min Rain = 0
KES1 040350Z 14006KT 30/17 A2999 RMK A01 T03040170  RH  045%=      5-min Rain = 0
KES1 040351Z 14007KT 30/17 A2999 RMK A01 T03030170  RH  045%=      5-min Rain = 0
KES1 040352Z 14006KT 30/17 A2999 RMK A01 T03030170  RH  045%=      5-min Rain = 0
KES1 040353Z 14006KT 30/17 A2999 RMK A01 T03030171  RH  045%=      5-min Rain = 0
KES1 040354Z 14007KT 30/17 A2999 RMK A01 T03030170  RH  045%=      5-min Rain = 0
KES1 040355Z 14007KT 30/17 A2999 RMK A01 T03030170  RH  045%=      5-min Rain = 0
KES1 040356Z 14007KT 30/17 A2999 RMK A01 T03020170  RH  045%=      5-min Rain = 0
KES1 040357Z 14006KT 30/17 A2999 RMK A01 T03020170  RH  045%=      5-min Rain = 0
KES1 040358Z 14006KT 30/17 A2999 RMK A01 T03020170  RH  045%=      5-min Rain = 0
KES1 040359Z 14006KT 30/17 A2999 RMK A01 T03010170  RH  045%=      5-min Rain = 0
KES1 040400Z 14007KT 30/17 A2999 RMK A01 T03010170  RH  045%=      5-min Rain = 0
KES1 040401Z 14006KT 30/17 A2999 RMK A01 T03000170  RH  046%=      5-min Rain = 0
KES1 040402Z 14006KT 30/17 A2999 RMK A01 T03000170  RH  046%=      5-min Rain = 0
KES1 040403Z 14007KT 30/17 A2999 RMK A01 T03000170  RH  046%=      5-min Rain = 0
KES1 040404Z 14006KT 30/17 A2999 RMK A01 T02990170  RH  046%=      5-min Rain = 0
KES1 040405Z 14006KT 30/17 A2999 RMK A01 T02990170  RH  046%=      5-min Rain = 0
KES1 040406Z 14006KT 30/17 A2999 RMK A01 T02990170  RH  046%=      5-min Rain = 0
KES1 040407Z 13007KT 30/17 A2999 RMK A01 T02990169  RH  046%=      5-min Rain = 0
KES1 040408Z 14006KT 30/17 A2999 RMK A01 T02990169  RH  046%=      5-min Rain = 0
KES1 040409Z 14008KT 30/17 A2999 RMK A01 T02990169  RH  046%=      5-min Rain = 0
KES1 040410Z 14007KT 30/17 A2999 RMK A01 T02990169  RH  046%=      5-min Rain = 0
KES1 040411Z 14006KT 30/17 A30 RMK A01 T02990169  RH  046%=      5-min Rain = 0
KES1 040412Z 14007KT 30/17 A30 RMK A01 T02990169  RH  046%=      5-min Rain = 0
KES1 040413Z 14007KT 30/17 A30 RMK A01 T02990169  RH  046%=      5-min Rain = 0
KES1 040414Z 14007KT 30/17 A30 RMK A01 T02980169  RH  046%=      5-min Rain = 0
KES1 040415Z 14006KT 30/17 A30 RMK A01 T02990169  RH  046%=      5-min Rain = 0
KES1 040416Z 14006KT 30/17 A30 RMK A01 T02980170  RH  046%=      5-min Rain = 0
KES1 040417Z 14007KT 30/17 A30 RMK A01 T02980170  RH  046%=      5-min Rain = 0
KES1 040418Z 14006KT 30/17 A30 RMK A01 T02970169  RH  046%=      5-min Rain = 0
KES1 040419Z 14007KT 30/17 A30 RMK A01 T02980169  RH  046%=      5-min Rain = 0
KES1 040420Z 14007KT 30/17 A30 RMK A01 T02980169  RH  046%=      5-min Rain = 0
KES1 040421Z 14007KT 30/17 A30 RMK A01 T02970169  RH  046%=      5-min Rain = 0
KES1 040422Z 14007KT 30/17 A30 RMK A01 T02970169  RH  046%=      5-min Rain = 0
KES1 040423Z 14007KT 30/17 A30 RMK A01 T02970169  RH  046%=      5-min Rain = 0
KES1 040424Z 14007KT 30/17 A30 RMK A01 T02970169  RH  046%=      5-min Rain = 0
KES1 040425Z 14007KT 30/17 A30 RMK A01 T02970169  RH  046%=      5-min Rain = 0
KES1 040426Z 14007KT 30/17 A30 RMK A01 T02970168  RH  046%=      5-min Rain = 0
KES1 040427Z 14006KT 30/17 A30 RMK A01 T02970168  RH  046%=      5-min Rain = 0
KES1 040428Z 14007KT 30/17 A30 RMK A01 T02970168  RH  046%=      5-min Rain = 0
KES1 040429Z 14007KT 30/17 A30 RMK A01 T02970168  RH  046%=      5-min Rain = 0
KES1 040430Z 14007KT 30/17 A30 RMK A01 T02970169  RH  046%=      5-min Rain = 0
KES1 040431Z 14007KT 30/17 A30 RMK A01 T02960168  RH  046%=      5-min Rain = 0
KES1 040432Z 14007KT 30/17 A30 RMK A01 T02960168  RH  046%=      5-min Rain = 0
KES1 040433Z 14007KT 30/17 A30 RMK A01 T02960167  RH  046%=      5-min Rain = 0
KES1 040434Z 14007KT 30/17 A30 RMK A01 T02950167  RH  046%=      5-min Rain = 0
KES1 040435Z 14007KT 30/17 A30 RMK A01 T02960167  RH  046%=      5-min Rain = 0
KES1 040436Z 14007KT 30/17 A30 RMK A01 T02960166  RH  046%=      5-min Rain = 0
KES1 040437Z 14007KT 30/17 A30 RMK A01 T02960166  RH  046%=      5-min Rain = 0
KES1 040438Z 14007KT 30/17 A30 RMK A01 T02960166  RH  046%=      5-min Rain = 0
KES1 040439Z 14007KT 30/17 A30 RMK A01 T02960166  RH  046%=      5-min Rain = 0
KES1 040440Z 14007KT 30/17 A2999 RMK A01 T02950166  RH  046%=      5-min Rain = 0
KES1 040441Z 14007KT 29/17 A2999 RMK A01 T02940166  RH  046%=      5-min Rain = 0
KES1 040442Z 14007KT 30/17 A2999 RMK A01 T02950166  RH  046%=      5-min Rain = 0
KES1 040443Z 14007KT 29/17 A2999 RMK A01 T02940166  RH  046%=      5-min Rain = 0
KES1 040444Z 15007KT 29/17 A2999 RMK A01 T02940166  RH  046%=      5-min Rain = 0
KES1 040445Z 15006KT 29/17 A2999 RMK A01 T02940166  RH  046%=      5-min Rain = 0
KES1 040446Z 14007KT 29/17 A2999 RMK A01 T02940166  RH  046%=      5-min Rain = 0
KES1 040447Z 15007KT 29/17 A2999 RMK A01 T02940166  RH  046%=      5-min Rain = 0
KES1 040448Z 15007KT 29/17 A2999 RMK A01 T02940166  RH  046%=      5-min Rain = 0
KES1 040449Z 14007KT 29/17 A2999 RMK A01 T02930165  RH  046%=      5-min Rain = 0
KES1 040450Z 15008KT 29/17 A2999 RMK A01 T02930165  RH  046%=      5-min Rain = 0
KES1 040451Z 15007KT 29/16 A2999 RMK A01 T02930164  RH  046%=      5-min Rain = 0
KES1 040452Z 14007KT 29/16 A2999 RMK A01 T02930164  RH  046%=      5-min Rain = 0
KES1 040453Z 15007KT 29/16 A2999 RMK A01 T02920164  RH  046%=      5-min Rain = 0
KES1 040454Z 14006KT 29/16 A2999 RMK A01 T02920164  RH  046%=      5-min Rain = 0
KES1 040455Z 15007KT 29/16 A2999 RMK A01 T02920164  RH  046%=      5-min Rain = 0
KES1 040456Z 15008KT 29/16 A2999 RMK A01 T02920163  RH  046%=      5-min Rain = 0
KES1 040457Z 15007KT 29/16 A2999 RMK A01 T02920163  RH  046%=      5-min Rain = 0
KES1 040458Z 15007KT 29/16 A2999 RMK A01 T02920163  RH  046%=      5-min Rain = 0
KES1 040459Z 15007KT 29/16 A2999 RMK A01 T02910163  RH  046%=      5-min Rain = 0

Page generated in 0.0783 seconds.